<?xml version="1.0" encoding="UTF-8" standalone="no" ?>
<gpx xmlns="http://www.topografix.com/GPX/1/1" xmlns:xsi="http://www.w3.org/2001/XMLSchema-instance" xsi:schemaLocation="http://www.topografix.com/GPX/1/1 http://www.topografix.com/GPX/1/1/gpx.xsd" version="1.1" creator="VisuGPX - https://www.visugpx.com">
  <metadata>
    <name>50frbe</name>
  </metadata>
  <trk>
    <name><![CDATA[45test]]></name>
    <trkseg>
      <trkpt lat="50.5032" lon="3.46352">
        <ele>20.74406</ele>
        <time>2020-05-31T13:44:45.647Z</time>
      </trkpt>
      <trkpt lat="50.50325" lon="3.46304">
        <ele>20.74406</ele>
        <time>2020-05-31T13:44:50.172Z</time>
      </trkpt>
      <trkpt lat="50.50335" lon="3.46236">
        <ele>20.74406</ele>
        <time>2020-05-31T13:44:56.636Z</time>
      </trkpt>
      <trkpt lat="50.50345" lon="3.46155">
        <ele>20.585476</ele>
        <time>2020-05-31T13:45:03.849Z</time>
      </trkpt>
      <trkpt lat="50.50361" lon="3.46074">
        <ele>20.360333</ele>
        <time>2020-05-31T13:45:11.087Z</time>
      </trkpt>
      <trkpt lat="50.5041" lon="3.45851">
        <ele>19.732854</ele>
        <time>2020-05-31T13:45:31.135Z</time>
      </trkpt>
      <trkpt lat="50.50424" lon="3.45772">
        <ele>19.51624</ele>
        <time>2020-05-31T13:45:38.195Z</time>
      </trkpt>
      <trkpt lat="50.50433" lon="3.4572">
        <ele>19.372747</ele>
        <time>2020-05-31T13:45:42.887Z</time>
      </trkpt>
      <trkpt lat="50.50436" lon="3.45642">
        <ele>19.099805</ele>
        <time>2020-05-31T13:45:49.603Z</time>
      </trkpt>
      <trkpt lat="50.50437" lon="3.45631">
        <ele>19.044538</ele>
        <time>2020-05-31T13:45:50.416Z</time>
      </trkpt>
      <trkpt lat="50.5044" lon="3.45588">
        <ele>18.826001</ele>
        <time>2020-05-31T13:45:54.526Z</time>
      </trkpt>
      <trkpt lat="50.50441" lon="3.45573">
        <ele>18.749006</ele>
        <time>2020-05-31T13:45:55.678Z</time>
      </trkpt>
      <trkpt lat="50.50441" lon="3.45568">
        <ele>18.723283</ele>
        <time>2020-05-31T13:45:56.121Z</time>
      </trkpt>
      <trkpt lat="50.50443" lon="3.45552">
        <ele>18.641452</ele>
        <time>2020-05-31T13:45:57.476Z</time>
      </trkpt>
      <trkpt lat="50.50448" lon="3.45508">
        <ele>18.420798</ele>
        <time>2020-05-31T13:46:00.903Z</time>
      </trkpt>
      <trkpt lat="50.50447" lon="3.4549">
        <ele>18.327854</ele>
        <time>2020-05-31T13:46:02.339Z</time>
      </trkpt>
      <trkpt lat="50.50444" lon="3.45482">
        <ele>18.280417</ele>
        <time>2020-05-31T13:46:03.147Z</time>
      </trkpt>
      <trkpt lat="50.50448" lon="3.4547">
        <ele>18.212726</ele>
        <time>2020-05-31T13:46:04.129Z</time>
      </trkpt>
      <trkpt lat="50.50458" lon="3.45443">
        <ele>18.054927</ele>
        <time>2020-05-31T13:46:06.579Z</time>
      </trkpt>
      <trkpt lat="50.50468" lon="3.45372">
        <ele>17.683325</ele>
        <time>2020-05-31T13:46:12.267Z</time>
      </trkpt>
      <trkpt lat="50.50471" lon="3.45343">
        <ele>17.527191</ele>
        <time>2020-05-31T13:46:14.631Z</time>
      </trkpt>
      <trkpt lat="50.50473" lon="3.45332">
        <ele>17.470768</ele>
        <time>2020-05-31T13:46:15.435Z</time>
      </trkpt>
      <trkpt lat="50.50477" lon="3.45312">
        <ele>17.356732</ele>
        <time>2020-05-31T13:46:17.195Z</time>
      </trkpt>
      <trkpt lat="50.50513" lon="3.45201">
        <ele>16.70027</ele>
        <time>2020-05-31T13:46:27.113Z</time>
      </trkpt>
      <trkpt lat="50.50531" lon="3.45152">
        <ele>16.401419</ele>
        <time>2020-05-31T13:46:31.682Z</time>
      </trkpt>
      <trkpt lat="50.50539" lon="3.45133">
        <ele>16.314815</ele>
        <time>2020-05-31T13:46:33.492Z</time>
      </trkpt>
      <trkpt lat="50.50551" lon="3.45111">
        <ele>16.262424</ele>
        <time>2020-05-31T13:46:35.930Z</time>
      </trkpt>
      <trkpt lat="50.50599" lon="3.45026">
        <ele>16.052532</ele>
        <time>2020-05-31T13:46:45.908Z</time>
      </trkpt>
      <trkpt lat="50.50652" lon="3.44916">
        <ele>15.809907</ele>
        <time>2020-05-31T13:46:58.754Z</time>
      </trkpt>
      <trkpt lat="50.50661" lon="3.44894">
        <ele>15.796234</ele>
        <time>2020-05-31T13:47:01.019Z</time>
      </trkpt>
      <trkpt lat="50.50673" lon="3.44871">
        <ele>15.78021</ele>
        <time>2020-05-31T13:47:03.919Z</time>
      </trkpt>
      <trkpt lat="50.50707" lon="3.44823">
        <ele>15.742499</ele>
        <time>2020-05-31T13:47:10.396Z</time>
      </trkpt>
      <trkpt lat="50.51095" lon="3.44486">
        <ele>15.455526</ele>
        <time>2020-05-31T13:48:14.805Z</time>
      </trkpt>
      <trkpt lat="50.51116" lon="3.44468">
        <ele>15.478289</ele>
        <time>2020-05-31T13:48:18.616Z</time>
      </trkpt>
      <trkpt lat="50.51151" lon="3.44437">
        <ele>15.551716</ele>
        <time>2020-05-31T13:48:24.751Z</time>
      </trkpt>
      <trkpt lat="50.51187" lon="3.44406">
        <ele>15.628104</ele>
        <time>2020-05-31T13:48:31.249Z</time>
      </trkpt>
      <trkpt lat="50.5119" lon="3.44403">
        <ele>15.636165</ele>
        <time>2020-05-31T13:48:32.042Z</time>
      </trkpt>
      <trkpt lat="50.51322" lon="3.4435">
        <ele>15.83182</ele>
        <time>2020-05-31T13:48:53.435Z</time>
      </trkpt>
      <trkpt lat="50.5134" lon="3.44349">
        <ele>15.847425</ele>
        <time>2020-05-31T13:48:56.442Z</time>
      </trkpt>
      <trkpt lat="50.51388" lon="3.44241">
        <ele>15.917866</ele>
        <time>2020-05-31T13:49:13.405Z</time>
      </trkpt>
      <trkpt lat="50.5146" lon="3.44108">
        <ele>15.848059</ele>
        <time>2020-05-31T13:49:35.135Z</time>
      </trkpt>
      <trkpt lat="50.51492" lon="3.44065">
        <ele>15.806303</ele>
        <time>2020-05-31T13:49:43.321Z</time>
      </trkpt>
      <trkpt lat="50.51515" lon="3.44047">
        <ele>15.781156</ele>
        <time>2020-05-31T13:49:48.444Z</time>
      </trkpt>
      <trkpt lat="50.51595" lon="3.43999">
        <ele>15.913685</ele>
        <time>2020-05-31T13:50:06.348Z</time>
      </trkpt>
      <trkpt lat="50.51583" lon="3.43897">
        <ele>16.079271</ele>
        <time>2020-05-31T13:50:20.498Z</time>
      </trkpt>
      <trkpt lat="50.51578" lon="3.43822">
        <ele>16.200856</ele>
        <time>2020-05-31T13:50:30.968Z</time>
      </trkpt>
      <trkpt lat="50.51579" lon="3.4378">
        <ele>16.212051</ele>
        <time>2020-05-31T13:50:36.799Z</time>
      </trkpt>
      <trkpt lat="50.51595" lon="3.43711">
        <ele>16.211544</ele>
        <time>2020-05-31T13:50:46.802Z</time>
      </trkpt>
      <trkpt lat="50.51685" lon="3.43587">
        <ele>16.159261</ele>
        <time>2020-05-31T13:51:10.257Z</time>
      </trkpt>
      <trkpt lat="50.51691" lon="3.43575">
        <ele>16.102552</ele>
        <time>2020-05-31T13:51:12.030Z</time>
      </trkpt>
      <trkpt lat="50.51679" lon="3.43556">
        <ele>15.997285</ele>
        <time>2020-05-31T13:51:14.401Z</time>
      </trkpt>
      <trkpt lat="50.51572" lon="3.43377">
        <ele>15.10572</ele>
        <time>2020-05-31T13:51:34.331Z</time>
      </trkpt>
      <trkpt lat="50.51559" lon="3.4334">
        <ele>15.021546</ele>
        <time>2020-05-31T13:51:38.021Z</time>
      </trkpt>
      <trkpt lat="50.51551" lon="3.43317">
        <ele>14.968777</ele>
        <time>2020-05-31T13:51:40.240Z</time>
      </trkpt>
      <trkpt lat="50.51545" lon="3.43295">
        <ele>14.919851</ele>
        <time>2020-05-31T13:51:42.435Z</time>
      </trkpt>
      <trkpt lat="50.51537" lon="3.43274">
        <ele>14.871239</ele>
        <time>2020-05-31T13:51:44.514Z</time>
      </trkpt>
      <trkpt lat="50.51531" lon="3.43248">
        <ele>14.815635</ele>
        <time>2020-05-31T13:51:46.978Z</time>
      </trkpt>
      <trkpt lat="50.51526" lon="3.43216">
        <ele>14.749708</ele>
        <time>2020-05-31T13:51:49.841Z</time>
      </trkpt>
      <trkpt lat="50.51526" lon="3.43141">
        <ele>14.59992</ele>
        <time>2020-05-31T13:51:56.444Z</time>
      </trkpt>
      <trkpt lat="50.51527" lon="3.43125">
        <ele>14.579191</ele>
        <time>2020-05-31T13:51:58.025Z</time>
      </trkpt>
      <trkpt lat="50.5155" lon="3.42874">
        <ele>14.819212</ele>
        <time>2020-05-31T13:52:22.558Z</time>
      </trkpt>
      <trkpt lat="50.51587" lon="3.42484">
        <ele>16.807112</ele>
        <time>2020-05-31T13:53:05.384Z</time>
      </trkpt>
      <trkpt lat="50.5159" lon="3.42448">
        <ele>17.253687</ele>
        <time>2020-05-31T13:53:10.418Z</time>
      </trkpt>
      <trkpt lat="50.51591" lon="3.42429">
        <ele>17.485194</ele>
        <time>2020-05-31T13:53:13.312Z</time>
      </trkpt>
      <trkpt lat="50.516" lon="3.42352">
        <ele>18.434314</ele>
        <time>2020-05-31T13:53:25.191Z</time>
      </trkpt>
      <trkpt lat="50.516" lon="3.4234">
        <ele>18.584075</ele>
        <time>2020-05-31T13:53:27.677Z</time>
      </trkpt>
      <trkpt lat="50.51598" lon="3.42329">
        <ele>18.719157</ele>
        <time>2020-05-31T13:53:29.835Z</time>
      </trkpt>
      <trkpt lat="50.51577" lon="3.42252">
        <ele>20.021533</ele>
        <time>2020-05-31T13:53:44.065Z</time>
      </trkpt>
      <trkpt lat="50.51559" lon="3.42188">
        <ele>21.327147</ele>
        <time>2020-05-31T13:53:56.632Z</time>
      </trkpt>
      <trkpt lat="50.51546" lon="3.4214">
        <ele>22.29111</ele>
        <time>2020-05-31T13:54:05.410Z</time>
      </trkpt>
      <trkpt lat="50.51541" lon="3.42124">
        <ele>22.630526</ele>
        <time>2020-05-31T13:54:09.356Z</time>
      </trkpt>
      <trkpt lat="50.5154" lon="3.42112">
        <ele>22.850637</ele>
        <time>2020-05-31T13:54:11.175Z</time>
      </trkpt>
      <trkpt lat="50.51536" lon="3.421">
        <ele>23.099998</ele>
        <time>2020-05-31T13:54:13.214Z</time>
      </trkpt>
      <trkpt lat="50.51538" lon="3.42097">
        <ele>23.158695</ele>
        <time>2020-05-31T13:54:13.688Z</time>
      </trkpt>
      <trkpt lat="50.51539" lon="3.42095">
        <ele>23.218404</ele>
        <time>2020-05-31T13:54:14.184Z</time>
      </trkpt>
      <trkpt lat="50.5154" lon="3.4209">
        <ele>23.313195</ele>
        <time>2020-05-31T13:54:15.018Z</time>
      </trkpt>
      <trkpt lat="50.5154" lon="3.42085">
        <ele>23.410544</ele>
        <time>2020-05-31T13:54:16.102Z</time>
      </trkpt>
      <trkpt lat="50.51539" lon="3.42082">
        <ele>23.470518</ele>
        <time>2020-05-31T13:54:16.797Z</time>
      </trkpt>
      <trkpt lat="50.51534" lon="3.42076">
        <ele>23.643014</ele>
        <time>2020-05-31T13:54:18.645Z</time>
      </trkpt>
      <trkpt lat="50.51532" lon="3.42076">
        <ele>23.704842</ele>
        <time>2020-05-31T13:54:19.197Z</time>
      </trkpt>
      <trkpt lat="50.51529" lon="3.42072">
        <ele>23.817475</ele>
        <time>2020-05-31T13:54:20.052Z</time>
      </trkpt>
      <trkpt lat="50.51525" lon="3.42065">
        <ele>24.004613</ele>
        <time>2020-05-31T13:54:21.446Z</time>
      </trkpt>
      <trkpt lat="50.51523" lon="3.42062">
        <ele>24.082001</ele>
        <time>2020-05-31T13:54:22.017Z</time>
      </trkpt>
      <trkpt lat="50.51521" lon="3.42059">
        <ele>24.164078</ele>
        <time>2020-05-31T13:54:22.634Z</time>
      </trkpt>
      <trkpt lat="50.51507" lon="3.42024">
        <ele>24.571684</ele>
        <time>2020-05-31T13:54:29.201Z</time>
      </trkpt>
      <trkpt lat="50.51499" lon="3.42004">
        <ele>24.681126</ele>
        <time>2020-05-31T13:54:32.161Z</time>
      </trkpt>
      <trkpt lat="50.51494" lon="3.41991">
        <ele>24.748984</ele>
        <time>2020-05-31T13:54:34.653Z</time>
      </trkpt>
      <trkpt lat="50.51492" lon="3.41986">
        <ele>24.777916</ele>
        <time>2020-05-31T13:54:35.657Z</time>
      </trkpt>
      <trkpt lat="50.51485" lon="3.41966">
        <ele>24.881885</ele>
        <time>2020-05-31T13:54:38.132Z</time>
      </trkpt>
      <trkpt lat="50.51481" lon="3.4195">
        <ele>24.959544</ele>
        <time>2020-05-31T13:54:39.963Z</time>
      </trkpt>
      <trkpt lat="50.51487" lon="3.41945">
        <ele>25.003239</ele>
        <time>2020-05-31T13:54:41.931Z</time>
      </trkpt>
      <trkpt lat="50.5151" lon="3.41926">
        <ele>25.191518</ele>
        <time>2020-05-31T13:54:47.863Z</time>
      </trkpt>
      <trkpt lat="50.51713" lon="3.41925">
        <ele>24.952131</ele>
        <time>2020-05-31T13:55:26.030Z</time>
      </trkpt>
      <trkpt lat="50.51727" lon="3.41926">
        <ele>24.86561</ele>
        <time>2020-05-31T13:55:28.395Z</time>
      </trkpt>
      <trkpt lat="50.51736" lon="3.41927">
        <ele>24.806435</ele>
        <time>2020-05-31T13:55:29.934Z</time>
      </trkpt>
      <trkpt lat="50.51872" lon="3.41918">
        <ele>23.834751</ele>
        <time>2020-05-31T13:55:53.484Z</time>
      </trkpt>
      <trkpt lat="50.5188" lon="3.41917">
        <ele>23.772799</ele>
        <time>2020-05-31T13:55:54.864Z</time>
      </trkpt>
      <trkpt lat="50.51886" lon="3.41916">
        <ele>23.728148</ele>
        <time>2020-05-31T13:55:55.987Z</time>
      </trkpt>
      <trkpt lat="50.51906" lon="3.41912">
        <ele>23.582443</ele>
        <time>2020-05-31T13:55:59.582Z</time>
      </trkpt>
      <trkpt lat="50.52017" lon="3.41913">
        <ele>23.634832</ele>
        <time>2020-05-31T13:56:21.354Z</time>
      </trkpt>
      <trkpt lat="50.52048" lon="3.41921">
        <ele>23.796305</ele>
        <time>2020-05-31T13:56:28.316Z</time>
      </trkpt>
      <trkpt lat="50.52079" lon="3.41929">
        <ele>23.955481</ele>
        <time>2020-05-31T13:56:35.916Z</time>
      </trkpt>
      <trkpt lat="50.52093" lon="3.41932">
        <ele>24.027013</ele>
        <time>2020-05-31T13:56:39.194Z</time>
      </trkpt>
      <trkpt lat="50.52105" lon="3.41935">
        <ele>24.088857</ele>
        <time>2020-05-31T13:56:42.600Z</time>
      </trkpt>
      <trkpt lat="50.52169" lon="3.4195">
        <ele>24.748841</ele>
        <time>2020-05-31T13:56:58.750Z</time>
      </trkpt>
      <trkpt lat="50.52246" lon="3.41966">
        <ele>25.733834</ele>
        <time>2020-05-31T13:57:19.117Z</time>
      </trkpt>
      <trkpt lat="50.52273" lon="3.41971">
        <ele>26.077299</ele>
        <time>2020-05-31T13:57:25.856Z</time>
      </trkpt>
      <trkpt lat="50.52365" lon="3.41989">
        <ele>26.967292</ele>
        <time>2020-05-31T13:57:48.454Z</time>
      </trkpt>
      <trkpt lat="50.52437" lon="3.42011">
        <ele>27.553863</ele>
        <time>2020-05-31T13:58:05.472Z</time>
      </trkpt>
      <trkpt lat="50.52521" lon="3.42029">
        <ele>28.034353</ele>
        <time>2020-05-31T13:58:24.588Z</time>
      </trkpt>
      <trkpt lat="50.52521" lon="3.42029">
        <ele>28.034353</ele>
        <time>2020-05-31T13:58:24.655Z</time>
      </trkpt>
      <trkpt lat="50.52597" lon="3.42045">
        <ele>28.262143</ele>
        <time>2020-05-31T13:58:41.200Z</time>
      </trkpt>
      <trkpt lat="50.52752" lon="3.4208">
        <ele>28.420548</ele>
        <time>2020-05-31T13:59:12.570Z</time>
      </trkpt>
      <trkpt lat="50.52836" lon="3.42099">
        <ele>28.393348</ele>
        <time>2020-05-31T13:59:29.467Z</time>
      </trkpt>
      <trkpt lat="50.5289" lon="3.42111">
        <ele>28.323792</ele>
        <time>2020-05-31T13:59:40.671Z</time>
      </trkpt>
      <trkpt lat="50.53254" lon="3.42189">
        <ele>27.140003</ele>
        <time>2020-05-31T14:00:52.416Z</time>
      </trkpt>
      <trkpt lat="50.53265" lon="3.42192">
        <ele>27.025834</ele>
        <time>2020-05-31T14:00:54.235Z</time>
      </trkpt>
      <trkpt lat="50.53268" lon="3.42193">
        <ele>26.99348</ele>
        <time>2020-05-31T14:00:54.602Z</time>
      </trkpt>
      <trkpt lat="50.53342" lon="3.42208">
        <ele>26.191639</ele>
        <time>2020-05-31T14:01:03.298Z</time>
      </trkpt>
      <trkpt lat="50.53478" lon="3.42237">
        <ele>24.095133</ele>
        <time>2020-05-31T14:01:18.561Z</time>
      </trkpt>
      <trkpt lat="50.53576" lon="3.42263">
        <ele>22.634291</ele>
        <time>2020-05-31T14:01:29.982Z</time>
      </trkpt>
      <trkpt lat="50.53725" lon="3.42291">
        <ele>21.229752</ele>
        <time>2020-05-31T14:01:48.842Z</time>
      </trkpt>
      <trkpt lat="50.53826" lon="3.42315">
        <ele>20.494437</ele>
        <time>2020-05-31T14:02:01.961Z</time>
      </trkpt>
      <trkpt lat="50.53907" lon="3.42331">
        <ele>19.904409</ele>
        <time>2020-05-31T14:02:12.322Z</time>
      </trkpt>
      <trkpt lat="50.53965" lon="3.42346">
        <ele>19.597313</ele>
        <time>2020-05-31T14:02:19.861Z</time>
      </trkpt>
      <trkpt lat="50.53968" lon="3.42348">
        <ele>19.577854</ele>
        <time>2020-05-31T14:02:20.285Z</time>
      </trkpt>
      <trkpt lat="50.53973" lon="3.42348">
        <ele>19.553052</ele>
        <time>2020-05-31T14:02:20.833Z</time>
      </trkpt>
      <trkpt lat="50.54078" lon="3.4237">
        <ele>18.992713</ele>
        <time>2020-05-31T14:02:34.808Z</time>
      </trkpt>
      <trkpt lat="50.54233" lon="3.42428">
        <ele>19.267101</ele>
        <time>2020-05-31T14:02:59.731Z</time>
      </trkpt>
      <trkpt lat="50.54235" lon="3.42431">
        <ele>19.272703</ele>
        <time>2020-05-31T14:03:00.417Z</time>
      </trkpt>
      <trkpt lat="50.54248" lon="3.42564">
        <ele>19.633264</ele>
        <time>2020-05-31T14:03:14.989Z</time>
      </trkpt>
      <trkpt lat="50.54249" lon="3.42573">
        <ele>19.661666</ele>
        <time>2020-05-31T14:03:16.170Z</time>
      </trkpt>
      <trkpt lat="50.54249" lon="3.42586">
        <ele>19.701527</ele>
        <time>2020-05-31T14:03:17.387Z</time>
      </trkpt>
      <trkpt lat="50.54239" lon="3.42675">
        <ele>19.992332</ele>
        <time>2020-05-31T14:03:27.631Z</time>
      </trkpt>
      <trkpt lat="50.54325" lon="3.427">
        <ele>20.068727</ele>
        <time>2020-05-31T14:03:41.657Z</time>
      </trkpt>
      <trkpt lat="50.54397" lon="3.42722">
        <ele>19.770672</ele>
        <time>2020-05-31T14:03:51.577Z</time>
      </trkpt>
      <trkpt lat="50.54416" lon="3.42728">
        <ele>19.689401</ele>
        <time>2020-05-31T14:03:54.218Z</time>
      </trkpt>
      <trkpt lat="50.54421" lon="3.42744">
        <ele>19.64386</ele>
        <time>2020-05-31T14:03:55.681Z</time>
      </trkpt>
      <trkpt lat="50.5442" lon="3.42762">
        <ele>19.598874</ele>
        <time>2020-05-31T14:03:57.088Z</time>
      </trkpt>
      <trkpt lat="50.5442" lon="3.42792">
        <ele>19.519765</ele>
        <time>2020-05-31T14:03:59.552Z</time>
      </trkpt>
      <trkpt lat="50.54413" lon="3.42831">
        <ele>19.220288</ele>
        <time>2020-05-31T14:04:02.564Z</time>
      </trkpt>
      <trkpt lat="50.54381" lon="3.43027">
        <ele>17.502601</ele>
        <time>2020-05-31T14:04:17.363Z</time>
      </trkpt>
      <trkpt lat="50.54379" lon="3.43038">
        <ele>17.408705</ele>
        <time>2020-05-31T14:04:18.101Z</time>
      </trkpt>
      <trkpt lat="50.54377" lon="3.43037">
        <ele>17.375064</ele>
        <time>2020-05-31T14:04:18.412Z</time>
      </trkpt>
      <trkpt lat="50.54371" lon="3.43045">
        <ele>17.273822</ele>
        <time>2020-05-31T14:04:19.337Z</time>
      </trkpt>
      <trkpt lat="50.54371" lon="3.43046">
        <ele>17.262882</ele>
        <time>2020-05-31T14:04:19.450Z</time>
      </trkpt>
      <trkpt lat="50.5437" lon="3.43048">
        <ele>17.245707</ele>
        <time>2020-05-31T14:04:19.610Z</time>
      </trkpt>
      <trkpt lat="50.5437" lon="3.43049">
        <ele>17.235528</ele>
        <time>2020-05-31T14:04:19.698Z</time>
      </trkpt>
      <trkpt lat="50.5437" lon="3.43051">
        <ele>17.218509</ele>
        <time>2020-05-31T14:04:19.840Z</time>
      </trkpt>
      <trkpt lat="50.54374" lon="3.4306">
        <ele>17.129464</ele>
        <time>2020-05-31T14:04:20.683Z</time>
      </trkpt>
      <trkpt lat="50.54376" lon="3.4306">
        <ele>17.106782</ele>
        <time>2020-05-31T14:04:20.877Z</time>
      </trkpt>
      <trkpt lat="50.54374" lon="3.43074">
        <ele>17.036703</ele>
        <time>2020-05-31T14:04:21.875Z</time>
      </trkpt>
      <trkpt lat="50.54304" lon="3.43511">
        <ele>15.254819</ele>
        <time>2020-05-31T14:04:58.913Z</time>
      </trkpt>
      <trkpt lat="50.54302" lon="3.43522">
        <ele>15.223881</ele>
        <time>2020-05-31T14:04:59.970Z</time>
      </trkpt>
      <trkpt lat="50.54286" lon="3.43627">
        <ele>15.024774</ele>
        <time>2020-05-31T14:05:10.053Z</time>
      </trkpt>
      <trkpt lat="50.54285" lon="3.4363">
        <ele>15.030183</ele>
        <time>2020-05-31T14:05:10.312Z</time>
      </trkpt>
      <trkpt lat="50.54225" lon="3.43987">
        <ele>16.235851</ele>
        <time>2020-05-31T14:05:49.009Z</time>
      </trkpt>
      <trkpt lat="50.54177" lon="3.44294">
        <ele>18.195253</ele>
        <time>2020-05-31T14:06:29.855Z</time>
      </trkpt>
      <trkpt lat="50.54174" lon="3.44312">
        <ele>18.30631</ele>
        <time>2020-05-31T14:06:32.173Z</time>
      </trkpt>
      <trkpt lat="50.54142" lon="3.44503">
        <ele>18.722076</ele>
        <time>2020-05-31T14:06:53.479Z</time>
      </trkpt>
      <trkpt lat="50.54115" lon="3.44658">
        <ele>18.007424</ele>
        <time>2020-05-31T14:07:05.654Z</time>
      </trkpt>
      <trkpt lat="50.5411" lon="3.4468">
        <ele>17.901995</ele>
        <time>2020-05-31T14:07:07.353Z</time>
      </trkpt>
      <trkpt lat="50.54123" lon="3.44691">
        <ele>17.798399</ele>
        <time>2020-05-31T14:07:09.158Z</time>
      </trkpt>
      <trkpt lat="50.54138" lon="3.44698">
        <ele>17.705545</ele>
        <time>2020-05-31T14:07:10.965Z</time>
      </trkpt>
      <trkpt lat="50.54141" lon="3.447">
        <ele>17.685798</ele>
        <time>2020-05-31T14:07:11.306Z</time>
      </trkpt>
      <trkpt lat="50.5416" lon="3.44707">
        <ele>17.568376</ele>
        <time>2020-05-31T14:07:13.789Z</time>
      </trkpt>
      <trkpt lat="50.5417" lon="3.44711">
        <ele>17.509228</ele>
        <time>2020-05-31T14:07:14.977Z</time>
      </trkpt>
      <trkpt lat="50.54179" lon="3.44715">
        <ele>17.452491</ele>
        <time>2020-05-31T14:07:16.060Z</time>
      </trkpt>
      <trkpt lat="50.54192" lon="3.4472">
        <ele>17.372155</ele>
        <time>2020-05-31T14:07:17.838Z</time>
      </trkpt>
      <trkpt lat="50.54222" lon="3.44731">
        <ele>17.187434</ele>
        <time>2020-05-31T14:07:21.695Z</time>
      </trkpt>
      <trkpt lat="50.54249" lon="3.44741">
        <ele>17.022454</ele>
        <time>2020-05-31T14:07:25.178Z</time>
      </trkpt>
      <trkpt lat="50.54262" lon="3.44741">
        <ele>16.944734</ele>
        <time>2020-05-31T14:07:27.006Z</time>
      </trkpt>
      <trkpt lat="50.5428" lon="3.44728">
        <ele>16.824436</ele>
        <time>2020-05-31T14:07:29.660Z</time>
      </trkpt>
      <trkpt lat="50.54288" lon="3.44721">
        <ele>16.769819</ele>
        <time>2020-05-31T14:07:31.263Z</time>
      </trkpt>
      <trkpt lat="50.54333" lon="3.44658">
        <ele>17.1158</ele>
        <time>2020-05-31T14:07:42.193Z</time>
      </trkpt>
      <trkpt lat="50.54389" lon="3.44586">
        <ele>17.7024</ele>
        <time>2020-05-31T14:07:56.385Z</time>
      </trkpt>
      <trkpt lat="50.54403" lon="3.4458">
        <ele>17.815269</ele>
        <time>2020-05-31T14:07:59.216Z</time>
      </trkpt>
      <trkpt lat="50.54414" lon="3.4458">
        <ele>17.902277</ele>
        <time>2020-05-31T14:08:01.139Z</time>
      </trkpt>
      <trkpt lat="50.54423" lon="3.4458">
        <ele>17.973234</ele>
        <time>2020-05-31T14:08:02.666Z</time>
      </trkpt>
      <trkpt lat="50.54433" lon="3.44583">
        <ele>18.054575</ele>
        <time>2020-05-31T14:08:04.467Z</time>
      </trkpt>
      <trkpt lat="50.54444" lon="3.44586">
        <ele>18.152496</ele>
        <time>2020-05-31T14:08:06.610Z</time>
      </trkpt>
      <trkpt lat="50.54443" lon="3.44602">
        <ele>18.180507</ele>
        <time>2020-05-31T14:08:08.882Z</time>
      </trkpt>
      <trkpt lat="50.54438" lon="3.44687">
        <ele>18.295852</ele>
        <time>2020-05-31T14:08:20.637Z</time>
      </trkpt>
      <trkpt lat="50.54433" lon="3.44779">
        <ele>18.421434</ele>
        <time>2020-05-31T14:08:32.954Z</time>
      </trkpt>
      <trkpt lat="50.54443" lon="3.44924">
        <ele>18.685655</ele>
        <time>2020-05-31T14:08:51.388Z</time>
      </trkpt>
      <trkpt lat="50.54452" lon="3.44978">
        <ele>18.825633</ele>
        <time>2020-05-31T14:08:58.540Z</time>
      </trkpt>
      <trkpt lat="50.54568" lon="3.45465">
        <ele>20.784867</ele>
        <time>2020-05-31T14:10:14.773Z</time>
      </trkpt>
      <trkpt lat="50.54574" lon="3.45481">
        <ele>20.85253</ele>
        <time>2020-05-31T14:10:17.652Z</time>
      </trkpt>
      <trkpt lat="50.5458" lon="3.45499">
        <ele>20.931208</ele>
        <time>2020-05-31T14:10:20.928Z</time>
      </trkpt>
      <trkpt lat="50.54755" lon="3.46215">
        <ele>23.400346</ele>
        <time>2020-05-31T14:12:10.154Z</time>
      </trkpt>
      <trkpt lat="50.54762" lon="3.4624">
        <ele>23.320802</ele>
        <time>2020-05-31T14:12:13.268Z</time>
      </trkpt>
      <trkpt lat="50.54767" lon="3.46264">
        <ele>23.245232</ele>
        <time>2020-05-31T14:12:16.522Z</time>
      </trkpt>
      <trkpt lat="50.54814" lon="3.46462">
        <ele>22.634659</ele>
        <time>2020-05-31T14:12:40.299Z</time>
      </trkpt>
      <trkpt lat="50.5482" lon="3.46483">
        <ele>22.671816</ele>
        <time>2020-05-31T14:12:43.027Z</time>
      </trkpt>
      <trkpt lat="50.54832" lon="3.46526">
        <ele>22.748906</ele>
        <time>2020-05-31T14:12:48.851Z</time>
      </trkpt>
      <trkpt lat="50.54994" lon="3.47188">
        <ele>24.062585</ele>
        <time>2020-05-31T14:14:27.492Z</time>
      </trkpt>
      <trkpt lat="50.55009" lon="3.47249">
        <ele>24.216567</ele>
        <time>2020-05-31T14:14:36.306Z</time>
      </trkpt>
      <trkpt lat="50.55022" lon="3.47297">
        <ele>24.356855</ele>
        <time>2020-05-31T14:14:43.324Z</time>
      </trkpt>
      <trkpt lat="50.55199" lon="3.4802">
        <ele>26.566232</ele>
        <time>2020-05-31T14:16:31.990Z</time>
      </trkpt>
      <trkpt lat="50.55201" lon="3.48028">
        <ele>26.591969</ele>
        <time>2020-05-31T14:16:33.290Z</time>
      </trkpt>
      <trkpt lat="50.55205" lon="3.4802">
        <ele>26.622021</ele>
        <time>2020-05-31T14:16:34.339Z</time>
      </trkpt>
      <trkpt lat="50.5521" lon="3.48008">
        <ele>26.681986</ele>
        <time>2020-05-31T14:16:35.870Z</time>
      </trkpt>
      <trkpt lat="50.55261" lon="3.47984">
        <ele>27.121238</ele>
        <time>2020-05-31T14:16:45.142Z</time>
      </trkpt>
      <trkpt lat="50.55426" lon="3.47881">
        <ele>28.830189</ele>
        <time>2020-05-31T14:17:17.946Z</time>
      </trkpt>
      <trkpt lat="50.5553" lon="3.47818">
        <ele>30.253461</ele>
        <time>2020-05-31T14:17:40.787Z</time>
      </trkpt>
      <trkpt lat="50.55556" lon="3.47802">
        <ele>30.595992</ele>
        <time>2020-05-31T14:17:46.743Z</time>
      </trkpt>
      <trkpt lat="50.55584" lon="3.47785">
        <ele>30.973367</ele>
        <time>2020-05-31T14:17:53.350Z</time>
      </trkpt>
      <trkpt lat="50.55636" lon="3.47763">
        <ele>31.629513</ele>
        <time>2020-05-31T14:18:04.688Z</time>
      </trkpt>
      <trkpt lat="50.55658" lon="3.47761">
        <ele>31.89558</ele>
        <time>2020-05-31T14:18:09.291Z</time>
      </trkpt>
      <trkpt lat="50.55681" lon="3.4776">
        <ele>32.175815</ele>
        <time>2020-05-31T14:18:13.553Z</time>
      </trkpt>
      <trkpt lat="50.55701" lon="3.47748">
        <ele>32.442236</ele>
        <time>2020-05-31T14:18:17.353Z</time>
      </trkpt>
      <trkpt lat="50.55728" lon="3.47699">
        <ele>32.657381</ele>
        <time>2020-05-31T14:18:23.970Z</time>
      </trkpt>
      <trkpt lat="50.55744" lon="3.47681">
        <ele>32.690569</ele>
        <time>2020-05-31T14:18:26.993Z</time>
      </trkpt>
      <trkpt lat="50.55747" lon="3.47679">
        <ele>32.695533</ele>
        <time>2020-05-31T14:18:27.665Z</time>
      </trkpt>
      <trkpt lat="50.55752" lon="3.47676">
        <ele>32.705872</ele>
        <time>2020-05-31T14:18:28.531Z</time>
      </trkpt>
      <trkpt lat="50.55759" lon="3.47674">
        <ele>32.717251</ele>
        <time>2020-05-31T14:18:29.521Z</time>
      </trkpt>
      <trkpt lat="50.55776" lon="3.47674">
        <ele>32.745621</ele>
        <time>2020-05-31T14:18:32.136Z</time>
      </trkpt>
      <trkpt lat="50.55831" lon="3.47675">
        <ele>32.838897</ele>
        <time>2020-05-31T14:18:40.375Z</time>
      </trkpt>
      <trkpt lat="50.55848" lon="3.47676">
        <ele>32.868635</ele>
        <time>2020-05-31T14:18:42.827Z</time>
      </trkpt>
      <trkpt lat="50.55854" lon="3.4768">
        <ele>32.878754</ele>
        <time>2020-05-31T14:18:43.910Z</time>
      </trkpt>
      <trkpt lat="50.55876" lon="3.47695">
        <ele>32.927494</ele>
        <time>2020-05-31T14:18:47.233Z</time>
      </trkpt>
      <trkpt lat="50.55915" lon="3.47765">
        <ele>33.251148</ele>
        <time>2020-05-31T14:18:55.831Z</time>
      </trkpt>
      <trkpt lat="50.56024" lon="3.47769">
        <ele>33.85127</ele>
        <time>2020-05-31T14:19:15.875Z</time>
      </trkpt>
      <trkpt lat="50.56079" lon="3.47789">
        <ele>34.331231</ele>
        <time>2020-05-31T14:19:26.475Z</time>
      </trkpt>
      <trkpt lat="50.56092" lon="3.47804">
        <ele>34.470976</ele>
        <time>2020-05-31T14:19:29.657Z</time>
      </trkpt>
      <trkpt lat="50.56104" lon="3.47783">
        <ele>34.633776</ele>
        <time>2020-05-31T14:19:32.849Z</time>
      </trkpt>
      <trkpt lat="50.56138" lon="3.47691">
        <ele>35.247081</ele>
        <time>2020-05-31T14:19:45.427Z</time>
      </trkpt>
      <trkpt lat="50.56142" lon="3.47684">
        <ele>35.30117</ele>
        <time>2020-05-31T14:19:46.453Z</time>
      </trkpt>
      <trkpt lat="50.5615" lon="3.4768">
        <ele>35.378847</ele>
        <time>2020-05-31T14:19:48.173Z</time>
      </trkpt>
      <trkpt lat="50.56158" lon="3.47679">
        <ele>35.444335</ele>
        <time>2020-05-31T14:19:49.567Z</time>
      </trkpt>
      <trkpt lat="50.56187" lon="3.47692">
        <ele>35.653914</ele>
        <time>2020-05-31T14:19:54.926Z</time>
      </trkpt>
      <trkpt lat="50.56193" lon="3.47696">
        <ele>35.696495</ele>
        <time>2020-05-31T14:19:56.269Z</time>
      </trkpt>
      <trkpt lat="50.5623" lon="3.47745">
        <ele>35.978769</ele>
        <time>2020-05-31T14:20:04.098Z</time>
      </trkpt>
      <trkpt lat="50.56236" lon="3.47754">
        <ele>36.032577</ele>
        <time>2020-05-31T14:20:05.599Z</time>
      </trkpt>
      <trkpt lat="50.5624" lon="3.47748">
        <ele>36.062415</ele>
        <time>2020-05-31T14:20:06.480Z</time>
      </trkpt>
      <trkpt lat="50.56298" lon="3.47689">
        <ele>36.473744</ele>
        <time>2020-05-31T14:20:18.205Z</time>
      </trkpt>
      <trkpt lat="50.56326" lon="3.47642">
        <ele>36.75868</ele>
        <time>2020-05-31T14:20:25.314Z</time>
      </trkpt>
      <trkpt lat="50.5639" lon="3.47615">
        <ele>37.297043</ele>
        <time>2020-05-31T14:20:36.998Z</time>
      </trkpt>
      <trkpt lat="50.56432" lon="3.47581">
        <ele>37.683152</ele>
        <time>2020-05-31T14:20:45.420Z</time>
      </trkpt>
      <trkpt lat="50.56483" lon="3.4754">
        <ele>38.22012</ele>
        <time>2020-05-31T14:20:56.371Z</time>
      </trkpt>
      <trkpt lat="50.56562" lon="3.47477">
        <ele>39.479524</ele>
        <time>2020-05-31T14:21:14.219Z</time>
      </trkpt>
      <trkpt lat="50.56576" lon="3.47466">
        <ele>39.714307</ele>
        <time>2020-05-31T14:21:18.076Z</time>
      </trkpt>
      <trkpt lat="50.56619" lon="3.47432">
        <ele>40.394997</ele>
        <time>2020-05-31T14:21:28.004Z</time>
      </trkpt>
      <trkpt lat="50.56634" lon="3.47422">
        <ele>40.639045</ele>
        <time>2020-05-31T14:21:31.497Z</time>
      </trkpt>
      <trkpt lat="50.56641" lon="3.47421">
        <ele>40.732018</ele>
        <time>2020-05-31T14:21:32.921Z</time>
      </trkpt>
      <trkpt lat="50.56648" lon="3.47418">
        <ele>40.840728</ele>
        <time>2020-05-31T14:21:34.496Z</time>
      </trkpt>
      <trkpt lat="50.56697" lon="3.47412">
        <ele>41.577657</ele>
        <time>2020-05-31T14:21:44.268Z</time>
      </trkpt>
      <trkpt lat="50.56701" lon="3.47411">
        <ele>41.644036</ele>
        <time>2020-05-31T14:21:45.367Z</time>
      </trkpt>
      <trkpt lat="50.56705" lon="3.47409">
        <ele>41.713342</ele>
        <time>2020-05-31T14:21:46.341Z</time>
      </trkpt>
      <trkpt lat="50.56717" lon="3.47403">
        <ele>41.894536</ele>
        <time>2020-05-31T14:21:49.046Z</time>
      </trkpt>
      <trkpt lat="50.56774" lon="3.47365">
        <ele>42.827596</ele>
        <time>2020-05-31T14:22:01.947Z</time>
      </trkpt>
      <trkpt lat="50.56807" lon="3.47489">
        <ele>43.929866</ele>
        <time>2020-05-31T14:22:19.480Z</time>
      </trkpt>
      <trkpt lat="50.56812" lon="3.47507">
        <ele>44.072139</ele>
        <time>2020-05-31T14:22:21.779Z</time>
      </trkpt>
      <trkpt lat="50.56815" lon="3.47518">
        <ele>44.165071</ele>
        <time>2020-05-31T14:22:23.188Z</time>
      </trkpt>
      <trkpt lat="50.5682" lon="3.47528">
        <ele>44.258678</ele>
        <time>2020-05-31T14:22:25.025Z</time>
      </trkpt>
      <trkpt lat="50.56838" lon="3.47544">
        <ele>44.497517</ele>
        <time>2020-05-31T14:22:28.868Z</time>
      </trkpt>
      <trkpt lat="50.56882" lon="3.47565">
        <ele>45.0251</ele>
        <time>2020-05-31T14:22:37.557Z</time>
      </trkpt>
      <trkpt lat="50.569" lon="3.47571">
        <ele>45.238246</ele>
        <time>2020-05-31T14:22:41.245Z</time>
      </trkpt>
      <trkpt lat="50.56943" lon="3.476">
        <ele>45.588553</ele>
        <time>2020-05-31T14:22:49.871Z</time>
      </trkpt>
      <trkpt lat="50.56963" lon="3.47614">
        <ele>45.710777</ele>
        <time>2020-05-31T14:22:54.126Z</time>
      </trkpt>
      <trkpt lat="50.57008" lon="3.47669">
        <ele>46.03244</ele>
        <time>2020-05-31T14:23:03.815Z</time>
      </trkpt>
      <trkpt lat="50.57079" lon="3.47757">
        <ele>46.411794</ele>
        <time>2020-05-31T14:23:18.023Z</time>
      </trkpt>
      <trkpt lat="50.57106" lon="3.47799">
        <ele>46.394484</ele>
        <time>2020-05-31T14:23:23.736Z</time>
      </trkpt>
      <trkpt lat="50.57133" lon="3.47873">
        <ele>46.369865</ele>
        <time>2020-05-31T14:23:31.690Z</time>
      </trkpt>
      <trkpt lat="50.57171" lon="3.48065">
        <ele>46.192006</ele>
        <time>2020-05-31T14:23:49.696Z</time>
      </trkpt>
      <trkpt lat="50.57175" lon="3.4809">
        <ele>46.152867</ele>
        <time>2020-05-31T14:23:51.922Z</time>
      </trkpt>
      <trkpt lat="50.57172" lon="3.481">
        <ele>46.135421</ele>
        <time>2020-05-31T14:23:53.305Z</time>
      </trkpt>
      <trkpt lat="50.57169" lon="3.48155">
        <ele>46.050295</ele>
        <time>2020-05-31T14:24:00.140Z</time>
      </trkpt>
      <trkpt lat="50.57169" lon="3.48155">
        <ele>46.049831</ele>
        <time>2020-05-31T14:24:00.169Z</time>
      </trkpt>
      <trkpt lat="50.57153" lon="3.48264">
        <ele>45.842455</ele>
        <time>2020-05-31T14:24:13.876Z</time>
      </trkpt>
      <trkpt lat="50.57147" lon="3.48311">
        <ele>45.656795</ele>
        <time>2020-05-31T14:24:19.722Z</time>
      </trkpt>
      <trkpt lat="50.57136" lon="3.48373">
        <ele>45.41239</ele>
        <time>2020-05-31T14:24:27.369Z</time>
      </trkpt>
      <trkpt lat="50.57132" lon="3.48419">
        <ele>45.233149</ele>
        <time>2020-05-31T14:24:32.839Z</time>
      </trkpt>
      <trkpt lat="50.57135" lon="3.48474">
        <ele>45.023161</ele>
        <time>2020-05-31T14:24:39.181Z</time>
      </trkpt>
      <trkpt lat="50.57126" lon="3.48492">
        <ele>44.93436</ele>
        <time>2020-05-31T14:24:41.833Z</time>
      </trkpt>
      <trkpt lat="50.56899" lon="3.48627">
        <ele>42.434341</ele>
        <time>2020-05-31T14:25:23.473Z</time>
      </trkpt>
      <trkpt lat="50.5685" lon="3.48661">
        <ele>41.880293</ele>
        <time>2020-05-31T14:25:32.687Z</time>
      </trkpt>
      <trkpt lat="50.56794" lon="3.48699">
        <ele>41.25695</ele>
        <time>2020-05-31T14:25:43.228Z</time>
      </trkpt>
      <trkpt lat="50.56621" lon="3.48853">
        <ele>39.454739</ele>
        <time>2020-05-31T14:26:18.462Z</time>
      </trkpt>
      <trkpt lat="50.56356" lon="3.49122">
        <ele>36.466369</ele>
        <time>2020-05-31T14:27:12.990Z</time>
      </trkpt>
      <trkpt lat="50.56294" lon="3.49201">
        <ele>35.963715</ele>
        <time>2020-05-31T14:27:28.137Z</time>
      </trkpt>
      <trkpt lat="50.56212" lon="3.49318">
        <ele>35.616667</ele>
        <time>2020-05-31T14:27:49.386Z</time>
      </trkpt>
      <trkpt lat="50.56004" lon="3.49653">
        <ele>35.661708</ele>
        <time>2020-05-31T14:28:46.897Z</time>
      </trkpt>
      <trkpt lat="50.55999" lon="3.49661">
        <ele>35.713617</ele>
        <time>2020-05-31T14:28:48.625Z</time>
      </trkpt>
      <trkpt lat="50.55932" lon="3.49784">
        <ele>36.677335</ele>
        <time>2020-05-31T14:29:15.840Z</time>
      </trkpt>
      <trkpt lat="50.55771" lon="3.50084">
        <ele>41.658674</ele>
        <time>2020-05-31T14:30:28.344Z</time>
      </trkpt>
      <trkpt lat="50.55623" lon="3.50386">
        <ele>45.558738</ele>
        <time>2020-05-31T14:31:31.562Z</time>
      </trkpt>
      <trkpt lat="50.55609" lon="3.50416">
        <ele>45.909601</ele>
        <time>2020-05-31T14:31:37.781Z</time>
      </trkpt>
      <trkpt lat="50.55516" lon="3.50619">
        <ele>48.380846</ele>
        <time>2020-05-31T14:32:19.982Z</time>
      </trkpt>
      <trkpt lat="50.55359" lon="3.50981">
        <ele>52.145427</ele>
        <time>2020-05-31T14:33:33.023Z</time>
      </trkpt>
      <trkpt lat="50.55344" lon="3.51009">
        <ele>52.338958</ele>
        <time>2020-05-31T14:33:39.331Z</time>
      </trkpt>
      <trkpt lat="50.55241" lon="3.51175">
        <ele>52.432808</ele>
        <time>2020-05-31T14:34:10.497Z</time>
      </trkpt>
      <trkpt lat="50.5517" lon="3.51085">
        <ele>51.359999</ele>
        <time>2020-05-31T14:34:25.387Z</time>
      </trkpt>
      <trkpt lat="50.5516" lon="3.51069">
        <ele>51.18839</ele>
        <time>2020-05-31T14:34:27.644Z</time>
      </trkpt>
      <trkpt lat="50.5515" lon="3.51053">
        <ele>51.024601</ele>
        <time>2020-05-31T14:34:29.729Z</time>
      </trkpt>
      <trkpt lat="50.55095" lon="3.50843">
        <ele>48.649527</ele>
        <time>2020-05-31T14:34:52.505Z</time>
      </trkpt>
      <trkpt lat="50.55079" lon="3.50878">
        <ele>48.189125</ele>
        <time>2020-05-31T14:34:57.386Z</time>
      </trkpt>
      <trkpt lat="50.55053" lon="3.50962">
        <ele>48.116522</ele>
        <time>2020-05-31T14:35:08.416Z</time>
      </trkpt>
      <trkpt lat="50.55023" lon="3.51123">
        <ele>48.380461</ele>
        <time>2020-05-31T14:35:32.632Z</time>
      </trkpt>
      <trkpt lat="50.55017" lon="3.51151">
        <ele>48.427309</ele>
        <time>2020-05-31T14:35:37.123Z</time>
      </trkpt>
      <trkpt lat="50.54659" lon="3.50842">
        <ele>51.046166</ele>
        <time>2020-05-31T14:36:49.957Z</time>
      </trkpt>
      <trkpt lat="50.54519" lon="3.50719">
        <ele>51.011331</ele>
        <time>2020-05-31T14:37:12.516Z</time>
      </trkpt>
      <trkpt lat="50.5447" lon="3.50681">
        <ele>50.807336</ele>
        <time>2020-05-31T14:37:19.672Z</time>
      </trkpt>
      <trkpt lat="50.54425" lon="3.50662">
        <ele>50.632117</ele>
        <time>2020-05-31T14:37:25.912Z</time>
      </trkpt>
      <trkpt lat="50.54405" lon="3.50659">
        <ele>50.554455</ele>
        <time>2020-05-31T14:37:28.703Z</time>
      </trkpt>
      <trkpt lat="50.54361" lon="3.5067">
        <ele>50.393338</ele>
        <time>2020-05-31T14:37:34.871Z</time>
      </trkpt>
      <trkpt lat="50.54335" lon="3.50681">
        <ele>50.317659</ele>
        <time>2020-05-31T14:37:38.520Z</time>
      </trkpt>
      <trkpt lat="50.54111" lon="3.50861">
        <ele>49.310474</ele>
        <time>2020-05-31T14:38:13.498Z</time>
      </trkpt>
      <trkpt lat="50.54087" lon="3.5088">
        <ele>49.16546</ele>
        <time>2020-05-31T14:38:16.887Z</time>
      </trkpt>
      <trkpt lat="50.54045" lon="3.50916">
        <ele>48.889583</ele>
        <time>2020-05-31T14:38:22.846Z</time>
      </trkpt>
      <trkpt lat="50.5389" lon="3.51037">
        <ele>46.751939</ele>
        <time>2020-05-31T14:38:43.275Z</time>
      </trkpt>
      <trkpt lat="50.538" lon="3.51134">
        <ele>45.13378</ele>
        <time>2020-05-31T14:38:55.980Z</time>
      </trkpt>
      <trkpt lat="50.53793" lon="3.51141">
        <ele>45.016819</ele>
        <time>2020-05-31T14:38:56.826Z</time>
      </trkpt>
      <trkpt lat="50.53762" lon="3.51175">
        <ele>44.456779</ele>
        <time>2020-05-31T14:39:01.211Z</time>
      </trkpt>
      <trkpt lat="50.53609" lon="3.51345">
        <ele>41.753014</ele>
        <time>2020-05-31T14:39:23.097Z</time>
      </trkpt>
      <trkpt lat="50.53507" lon="3.51452">
        <ele>39.803588</ele>
        <time>2020-05-31T14:39:37.066Z</time>
      </trkpt>
      <trkpt lat="50.53463" lon="3.51504">
        <ele>38.918299</ele>
        <time>2020-05-31T14:39:43.192Z</time>
      </trkpt>
      <trkpt lat="50.53444" lon="3.51534">
        <ele>38.47465</ele>
        <time>2020-05-31T14:39:46.295Z</time>
      </trkpt>
      <trkpt lat="50.53411" lon="3.51602">
        <ele>37.658878</ele>
        <time>2020-05-31T14:39:52.403Z</time>
      </trkpt>
      <trkpt lat="50.53269" lon="3.51934">
        <ele>34.190334</ele>
        <time>2020-05-31T14:40:22.124Z</time>
      </trkpt>
      <trkpt lat="50.53219" lon="3.52013">
        <ele>33.451728</ele>
        <time>2020-05-31T14:40:30.940Z</time>
      </trkpt>
      <trkpt lat="50.53162" lon="3.52076">
        <ele>33.019004</ele>
        <time>2020-05-31T14:40:40.077Z</time>
      </trkpt>
      <trkpt lat="50.53142" lon="3.52096">
        <ele>32.873549</ele>
        <time>2020-05-31T14:40:43.163Z</time>
      </trkpt>
      <trkpt lat="50.53128" lon="3.52108">
        <ele>32.776423</ele>
        <time>2020-05-31T14:40:45.132Z</time>
      </trkpt>
      <trkpt lat="50.53086" lon="3.52135">
        <ele>32.491189</ele>
        <time>2020-05-31T14:40:51.185Z</time>
      </trkpt>
      <trkpt lat="50.5308" lon="3.52139">
        <ele>32.466532</ele>
        <time>2020-05-31T14:40:52.030Z</time>
      </trkpt>
      <trkpt lat="50.53054" lon="3.52153">
        <ele>32.409192</ele>
        <time>2020-05-31T14:40:55.700Z</time>
      </trkpt>
      <trkpt lat="50.53028" lon="3.52172">
        <ele>32.348281</ele>
        <time>2020-05-31T14:40:59.619Z</time>
      </trkpt>
      <trkpt lat="50.53024" lon="3.52174">
        <ele>32.341262</ele>
        <time>2020-05-31T14:41:00.127Z</time>
      </trkpt>
      <trkpt lat="50.53008" lon="3.52185">
        <ele>32.303599</ele>
        <time>2020-05-31T14:41:02.644Z</time>
      </trkpt>
      <trkpt lat="50.52996" lon="3.52196">
        <ele>32.275848</ele>
        <time>2020-05-31T14:41:04.420Z</time>
      </trkpt>
      <trkpt lat="50.52947" lon="3.52253">
        <ele>32.149382</ele>
        <time>2020-05-31T14:41:13.401Z</time>
      </trkpt>
      <trkpt lat="50.52824" lon="3.52458">
        <ele>32.335211</ele>
        <time>2020-05-31T14:41:41.310Z</time>
      </trkpt>
      <trkpt lat="50.52745" lon="3.52564">
        <ele>32.214966</ele>
        <time>2020-05-31T14:41:56.707Z</time>
      </trkpt>
      <trkpt lat="50.52728" lon="3.52578">
        <ele>32.177372</ele>
        <time>2020-05-31T14:41:59.485Z</time>
      </trkpt>
      <trkpt lat="50.5271" lon="3.52592">
        <ele>32.138202</ele>
        <time>2020-05-31T14:42:02.066Z</time>
      </trkpt>
      <trkpt lat="50.52648" lon="3.52624">
        <ele>32.008245</ele>
        <time>2020-05-31T14:42:11.128Z</time>
      </trkpt>
      <trkpt lat="50.52583" lon="3.52638">
        <ele>31.868459</ele>
        <time>2020-05-31T14:42:20.274Z</time>
      </trkpt>
      <trkpt lat="50.52577" lon="3.52639">
        <ele>31.856527</ele>
        <time>2020-05-31T14:42:20.958Z</time>
      </trkpt>
      <trkpt lat="50.52563" lon="3.5264">
        <ele>31.825222</ele>
        <time>2020-05-31T14:42:23.029Z</time>
      </trkpt>
      <trkpt lat="50.52544" lon="3.5264">
        <ele>31.78547</ele>
        <time>2020-05-31T14:42:25.793Z</time>
      </trkpt>
      <trkpt lat="50.52508" lon="3.5263">
        <ele>31.709062</ele>
        <time>2020-05-31T14:42:31.088Z</time>
      </trkpt>
      <trkpt lat="50.52426" lon="3.52603">
        <ele>31.357056</ele>
        <time>2020-05-31T14:42:43.024Z</time>
      </trkpt>
      <trkpt lat="50.52355" lon="3.52578">
        <ele>30.950038</ele>
        <time>2020-05-31T14:42:52.841Z</time>
      </trkpt>
      <trkpt lat="50.52343" lon="3.52573">
        <ele>30.880722</ele>
        <time>2020-05-31T14:42:54.237Z</time>
      </trkpt>
      <trkpt lat="50.52285" lon="3.52565">
        <ele>30.442541</ele>
        <time>2020-05-31T14:43:01.594Z</time>
      </trkpt>
      <trkpt lat="50.5224" lon="3.52579">
        <ele>29.793709</ele>
        <time>2020-05-31T14:43:06.997Z</time>
      </trkpt>
      <trkpt lat="50.52239" lon="3.52579">
        <ele>29.776502</ele>
        <time>2020-05-31T14:43:07.102Z</time>
      </trkpt>
      <trkpt lat="50.52115" lon="3.52624">
        <ele>28.036146</ele>
        <time>2020-05-31T14:43:21.688Z</time>
      </trkpt>
      <trkpt lat="50.52109" lon="3.52626">
        <ele>27.985896</ele>
        <time>2020-05-31T14:43:22.404Z</time>
      </trkpt>
      <trkpt lat="50.52079" lon="3.52637">
        <ele>27.712993</ele>
        <time>2020-05-31T14:43:26.037Z</time>
      </trkpt>
      <trkpt lat="50.52054" lon="3.52645">
        <ele>27.493988</ele>
        <time>2020-05-31T14:43:29.093Z</time>
      </trkpt>
      <trkpt lat="50.51976" lon="3.52663">
        <ele>26.803647</ele>
        <time>2020-05-31T14:43:39.212Z</time>
      </trkpt>
      <trkpt lat="50.51922" lon="3.52672">
        <ele>26.475151</ele>
        <time>2020-05-31T14:43:46.512Z</time>
      </trkpt>
      <trkpt lat="50.51909" lon="3.52671">
        <ele>26.440933</ele>
        <time>2020-05-31T14:43:48.287Z</time>
      </trkpt>
      <trkpt lat="50.519" lon="3.52671">
        <ele>26.415667</ele>
        <time>2020-05-31T14:43:49.730Z</time>
      </trkpt>
      <trkpt lat="50.5187" lon="3.52669">
        <ele>26.337929</ele>
        <time>2020-05-31T14:43:54.006Z</time>
      </trkpt>
      <trkpt lat="50.51851" lon="3.52668">
        <ele>26.288975</ele>
        <time>2020-05-31T14:43:56.703Z</time>
      </trkpt>
      <trkpt lat="50.51846" lon="3.52668">
        <ele>26.275287</ele>
        <time>2020-05-31T14:43:57.458Z</time>
      </trkpt>
      <trkpt lat="50.51799" lon="3.52666">
        <ele>26.149738</ele>
        <time>2020-05-31T14:44:04.176Z</time>
      </trkpt>
      <trkpt lat="50.51708" lon="3.52663">
        <ele>25.74691</ele>
        <time>2020-05-31T14:44:16.498Z</time>
      </trkpt>
      <trkpt lat="50.51704" lon="3.52663">
        <ele>25.725333</ele>
        <time>2020-05-31T14:44:17.032Z</time>
      </trkpt>
      <trkpt lat="50.51698" lon="3.52662">
        <ele>25.689912</ele>
        <time>2020-05-31T14:44:17.802Z</time>
      </trkpt>
      <trkpt lat="50.51687" lon="3.52662">
        <ele>25.628481</ele>
        <time>2020-05-31T14:44:19.232Z</time>
      </trkpt>
      <trkpt lat="50.5163" lon="3.52659">
        <ele>25.314681</ele>
        <time>2020-05-31T14:44:26.551Z</time>
      </trkpt>
      <trkpt lat="50.51621" lon="3.52659">
        <ele>25.26319</ele>
        <time>2020-05-31T14:44:27.674Z</time>
      </trkpt>
      <trkpt lat="50.51598" lon="3.52654">
        <ele>25.136026</ele>
        <time>2020-05-31T14:44:30.734Z</time>
      </trkpt>
      <trkpt lat="50.51589" lon="3.52651">
        <ele>25.086059</ele>
        <time>2020-05-31T14:44:31.829Z</time>
      </trkpt>
      <trkpt lat="50.51543" lon="3.52634">
        <ele>24.913925</ele>
        <time>2020-05-31T14:44:38.043Z</time>
      </trkpt>
      <trkpt lat="50.51472" lon="3.5261">
        <ele>24.663937</ele>
        <time>2020-05-31T14:44:47.656Z</time>
      </trkpt>
      <trkpt lat="50.51445" lon="3.52617">
        <ele>24.568399</ele>
        <time>2020-05-31T14:44:51.425Z</time>
      </trkpt>
      <trkpt lat="50.51274" lon="3.52778">
        <ele>24.935857</ele>
        <time>2020-05-31T14:45:22.749Z</time>
      </trkpt>
      <trkpt lat="50.51267" lon="3.52785">
        <ele>24.961369</ele>
        <time>2020-05-31T14:45:24.434Z</time>
      </trkpt>
      <trkpt lat="50.51259" lon="3.52787">
        <ele>24.985801</ele>
        <time>2020-05-31T14:45:25.786Z</time>
      </trkpt>
      <trkpt lat="50.51241" lon="3.52799">
        <ele>25.108496</ele>
        <time>2020-05-31T14:45:29.075Z</time>
      </trkpt>
      <trkpt lat="50.51239" lon="3.52801">
        <ele>25.124215</ele>
        <time>2020-05-31T14:45:29.641Z</time>
      </trkpt>
      <trkpt lat="50.51228" lon="3.5281">
        <ele>25.205436</ele>
        <time>2020-05-31T14:45:31.881Z</time>
      </trkpt>
      <trkpt lat="50.51227" lon="3.52811">
        <ele>25.215661</ele>
        <time>2020-05-31T14:45:32.166Z</time>
      </trkpt>
      <trkpt lat="50.51222" lon="3.52815">
        <ele>25.246711</ele>
        <time>2020-05-31T14:45:32.941Z</time>
      </trkpt>
      <trkpt lat="50.51213" lon="3.52825">
        <ele>25.315626</ele>
        <time>2020-05-31T14:45:34.802Z</time>
      </trkpt>
      <trkpt lat="50.51186" lon="3.52859">
        <ele>25.539712</ele>
        <time>2020-05-31T14:45:41.051Z</time>
      </trkpt>
      <trkpt lat="50.51183" lon="3.52863">
        <ele>25.565679</ele>
        <time>2020-05-31T14:45:41.850Z</time>
      </trkpt>
      <trkpt lat="50.51178" lon="3.52868">
        <ele>25.604765</ele>
        <time>2020-05-31T14:45:43.217Z</time>
      </trkpt>
      <trkpt lat="50.51072" lon="3.53025">
        <ele>26.052274</ele>
        <time>2020-05-31T14:46:08.293Z</time>
      </trkpt>
      <trkpt lat="50.5104" lon="3.53064">
        <ele>25.996757</ele>
        <time>2020-05-31T14:46:13.851Z</time>
      </trkpt>
      <trkpt lat="50.51023" lon="3.53078">
        <ele>25.969265</ele>
        <time>2020-05-31T14:46:16.681Z</time>
      </trkpt>
      <trkpt lat="50.50986" lon="3.53092">
        <ele>25.916586</ele>
        <time>2020-05-31T14:46:21.779Z</time>
      </trkpt>
      <trkpt lat="50.50985" lon="3.53093">
        <ele>25.914701</ele>
        <time>2020-05-31T14:46:21.964Z</time>
      </trkpt>
      <trkpt lat="50.50978" lon="3.53096">
        <ele>25.905064</ele>
        <time>2020-05-31T14:46:22.725Z</time>
      </trkpt>
      <trkpt lat="50.50957" lon="3.53107">
        <ele>25.727134</ele>
        <time>2020-05-31T14:46:25.665Z</time>
      </trkpt>
      <trkpt lat="50.5095" lon="3.53112">
        <ele>25.61801</ele>
        <time>2020-05-31T14:46:26.607Z</time>
      </trkpt>
      <trkpt lat="50.50943" lon="3.53121">
        <ele>25.484453</ele>
        <time>2020-05-31T14:46:27.591Z</time>
      </trkpt>
      <trkpt lat="50.5088" lon="3.53241">
        <ele>24.010907</ele>
        <time>2020-05-31T14:46:39.112Z</time>
      </trkpt>
      <trkpt lat="50.50877" lon="3.53244">
        <ele>23.959972</ele>
        <time>2020-05-31T14:46:39.437Z</time>
      </trkpt>
      <trkpt lat="50.50863" lon="3.53259">
        <ele>23.710281</ele>
        <time>2020-05-31T14:46:41.349Z</time>
      </trkpt>
      <trkpt lat="50.50856" lon="3.53266">
        <ele>23.582527</ele>
        <time>2020-05-31T14:46:42.401Z</time>
      </trkpt>
      <trkpt lat="50.50847" lon="3.53274">
        <ele>23.429707</ele>
        <time>2020-05-31T14:46:43.475Z</time>
      </trkpt>
      <trkpt lat="50.50843" lon="3.53276">
        <ele>23.364153</ele>
        <time>2020-05-31T14:46:43.906Z</time>
      </trkpt>
      <trkpt lat="50.50838" lon="3.53277">
        <ele>23.295732</ele>
        <time>2020-05-31T14:46:44.401Z</time>
      </trkpt>
      <trkpt lat="50.50823" lon="3.53275">
        <ele>23.078764</ele>
        <time>2020-05-31T14:46:46.198Z</time>
      </trkpt>
      <trkpt lat="50.50816" lon="3.53275">
        <ele>22.988644</ele>
        <time>2020-05-31T14:46:47.000Z</time>
      </trkpt>
      <trkpt lat="50.50807" lon="3.53276">
        <ele>22.863508</ele>
        <time>2020-05-31T14:46:47.932Z</time>
      </trkpt>
      <trkpt lat="50.50706" lon="3.53311">
        <ele>21.481455</ele>
        <time>2020-05-31T14:46:59.673Z</time>
      </trkpt>
      <trkpt lat="50.50692" lon="3.53323">
        <ele>21.265609</ele>
        <time>2020-05-31T14:47:01.516Z</time>
      </trkpt>
      <trkpt lat="50.5069" lon="3.53324">
        <ele>21.237044</ele>
        <time>2020-05-31T14:47:01.761Z</time>
      </trkpt>
      <trkpt lat="50.50685" lon="3.53328">
        <ele>21.163986</ele>
        <time>2020-05-31T14:47:02.492Z</time>
      </trkpt>
      <trkpt lat="50.50655" lon="3.53368">
        <ele>20.857839</ele>
        <time>2020-05-31T14:47:07.691Z</time>
      </trkpt>
      <trkpt lat="50.50652" lon="3.53372">
        <ele>20.877874</ele>
        <time>2020-05-31T14:47:08.368Z</time>
      </trkpt>
      <trkpt lat="50.50651" lon="3.53374">
        <ele>20.884883</ele>
        <time>2020-05-31T14:47:08.607Z</time>
      </trkpt>
      <trkpt lat="50.50647" lon="3.53379">
        <ele>20.912125</ele>
        <time>2020-05-31T14:47:09.694Z</time>
      </trkpt>
      <trkpt lat="50.50602" lon="3.53442">
        <ele>21.221146</ele>
        <time>2020-05-31T14:47:19.199Z</time>
      </trkpt>
      <trkpt lat="50.50593" lon="3.53457">
        <ele>21.287128</ele>
        <time>2020-05-31T14:47:21.845Z</time>
      </trkpt>
      <trkpt lat="50.50581" lon="3.53484">
        <ele>21.393405</ele>
        <time>2020-05-31T14:47:25.081Z</time>
      </trkpt>
      <trkpt lat="50.5058" lon="3.53485">
        <ele>21.398377</ele>
        <time>2020-05-31T14:47:25.323Z</time>
      </trkpt>
      <trkpt lat="50.50577" lon="3.53495">
        <ele>21.434124</ele>
        <time>2020-05-31T14:47:26.729Z</time>
      </trkpt>
      <trkpt lat="50.50572" lon="3.5351">
        <ele>21.489167</ele>
        <time>2020-05-31T14:47:29.038Z</time>
      </trkpt>
      <trkpt lat="50.50569" lon="3.53519">
        <ele>21.52243</ele>
        <time>2020-05-31T14:47:30.220Z</time>
      </trkpt>
      <trkpt lat="50.50559" lon="3.53545">
        <ele>21.621387</ele>
        <time>2020-05-31T14:47:34.059Z</time>
      </trkpt>
      <trkpt lat="50.50536" lon="3.53592">
        <ele>21.826411</ele>
        <time>2020-05-31T14:47:41.475Z</time>
      </trkpt>
      <trkpt lat="50.50503" lon="3.53661">
        <ele>22.150417</ele>
        <time>2020-05-31T14:47:51.855Z</time>
      </trkpt>
      <trkpt lat="50.50491" lon="3.53686">
        <ele>22.266197</ele>
        <time>2020-05-31T14:47:55.472Z</time>
      </trkpt>
      <trkpt lat="50.50479" lon="3.53725">
        <ele>22.430693</ele>
        <time>2020-05-31T14:48:00.330Z</time>
      </trkpt>
      <trkpt lat="50.50476" lon="3.53733">
        <ele>22.464429</ele>
        <time>2020-05-31T14:48:01.283Z</time>
      </trkpt>
      <trkpt lat="50.50465" lon="3.5375">
        <ele>22.552731</ele>
        <time>2020-05-31T14:48:04.404Z</time>
      </trkpt>
      <trkpt lat="50.50407" lon="3.53855">
        <ele>22.632374</ele>
        <time>2020-05-31T14:48:21.544Z</time>
      </trkpt>
      <trkpt lat="50.50382" lon="3.53899">
        <ele>22.535895</ele>
        <time>2020-05-31T14:48:28.590Z</time>
      </trkpt>
      <trkpt lat="50.50341" lon="3.53971">
        <ele>22.378793</ele>
        <time>2020-05-31T14:48:40.161Z</time>
      </trkpt>
      <trkpt lat="50.50309" lon="3.54026">
        <ele>22.346779</ele>
        <time>2020-05-31T14:48:49.369Z</time>
      </trkpt>
      <trkpt lat="50.50257" lon="3.54196">
        <ele>22.622728</ele>
        <time>2020-05-31T14:49:14.721Z</time>
      </trkpt>
      <trkpt lat="50.50202" lon="3.54269">
        <ele>22.891359</ele>
        <time>2020-05-31T14:49:31.135Z</time>
      </trkpt>
      <trkpt lat="50.50172" lon="3.54324">
        <ele>23.152674</ele>
        <time>2020-05-31T14:49:41.665Z</time>
      </trkpt>
      <trkpt lat="50.50152" lon="3.54372">
        <ele>23.3624</ele>
        <time>2020-05-31T14:49:50.088Z</time>
      </trkpt>
      <trkpt lat="50.50119" lon="3.54499">
        <ele>23.744052</ele>
        <time>2020-05-31T14:50:09.551Z</time>
      </trkpt>
      <trkpt lat="50.50089" lon="3.54609">
        <ele>23.755062</ele>
        <time>2020-05-31T14:50:25.681Z</time>
      </trkpt>
      <trkpt lat="50.50071" lon="3.54695">
        <ele>23.763473</ele>
        <time>2020-05-31T14:50:37.188Z</time>
      </trkpt>
      <trkpt lat="50.50059" lon="3.54787">
        <ele>23.364256</ele>
        <time>2020-05-31T14:50:48.212Z</time>
      </trkpt>
      <trkpt lat="50.50054" lon="3.54837">
        <ele>22.987597</ele>
        <time>2020-05-31T14:50:53.776Z</time>
      </trkpt>
      <trkpt lat="50.5001" lon="3.54829">
        <ele>22.458728</ele>
        <time>2020-05-31T14:50:59.022Z</time>
      </trkpt>
      <trkpt lat="50.49999" lon="3.54826">
        <ele>22.32981</ele>
        <time>2020-05-31T14:51:00.345Z</time>
      </trkpt>
      <trkpt lat="50.49987" lon="3.54823">
        <ele>22.19191</ele>
        <time>2020-05-31T14:51:01.682Z</time>
      </trkpt>
      <trkpt lat="50.49943" lon="3.54814">
        <ele>21.660654</ele>
        <time>2020-05-31T14:51:06.798Z</time>
      </trkpt>
      <trkpt lat="50.49937" lon="3.54813">
        <ele>21.588219</ele>
        <time>2020-05-31T14:51:07.481Z</time>
      </trkpt>
      <trkpt lat="50.49914" lon="3.54813">
        <ele>21.321182</ele>
        <time>2020-05-31T14:51:10.115Z</time>
      </trkpt>
      <trkpt lat="50.49907" lon="3.54814">
        <ele>21.232211</ele>
        <time>2020-05-31T14:51:10.917Z</time>
      </trkpt>
      <trkpt lat="50.49879" lon="3.54829">
        <ele>20.887145</ele>
        <time>2020-05-31T14:51:14.242Z</time>
      </trkpt>
      <trkpt lat="50.49871" lon="3.54834">
        <ele>20.77669</ele>
        <time>2020-05-31T14:51:15.246Z</time>
      </trkpt>
      <trkpt lat="50.49864" lon="3.54838">
        <ele>20.698551</ele>
        <time>2020-05-31T14:51:16.024Z</time>
      </trkpt>
      <trkpt lat="50.49851" lon="3.54847">
        <ele>20.526521</ele>
        <time>2020-05-31T14:51:17.701Z</time>
      </trkpt>
      <trkpt lat="50.49797" lon="3.5488">
        <ele>19.8407</ele>
        <time>2020-05-31T14:51:24.650Z</time>
      </trkpt>
      <trkpt lat="50.49764" lon="3.5489">
        <ele>19.557603</ele>
        <time>2020-05-31T14:51:29.112Z</time>
      </trkpt>
      <trkpt lat="50.49757" lon="3.54891">
        <ele>19.600221</ele>
        <time>2020-05-31T14:51:29.930Z</time>
      </trkpt>
      <trkpt lat="50.49752" lon="3.54891">
        <ele>19.630567</ele>
        <time>2020-05-31T14:51:30.631Z</time>
      </trkpt>
      <trkpt lat="50.497" lon="3.54892">
        <ele>19.971513</ele>
        <time>2020-05-31T14:51:39.080Z</time>
      </trkpt>
      <trkpt lat="50.49671" lon="3.54894">
        <ele>20.154969</ele>
        <time>2020-05-31T14:51:44.111Z</time>
      </trkpt>
      <trkpt lat="50.49667" lon="3.54894">
        <ele>20.179534</ele>
        <time>2020-05-31T14:51:44.982Z</time>
      </trkpt>
      <trkpt lat="50.49643" lon="3.54903">
        <ele>20.343764</ele>
        <time>2020-05-31T14:51:49.708Z</time>
      </trkpt>
      <trkpt lat="50.49616" lon="3.54924">
        <ele>20.538036</ele>
        <time>2020-05-31T14:51:55.823Z</time>
      </trkpt>
      <trkpt lat="50.49489" lon="3.55026">
        <ele>22.308449</ele>
        <time>2020-05-31T14:52:25.875Z</time>
      </trkpt>
      <trkpt lat="50.49457" lon="3.54883">
        <ele>23.260793</ele>
        <time>2020-05-31T14:52:49.667Z</time>
      </trkpt>
      <trkpt lat="50.49429" lon="3.54769">
        <ele>23.588476</ele>
        <time>2020-05-31T14:53:06.687Z</time>
      </trkpt>
      <trkpt lat="50.49387" lon="3.54656">
        <ele>23.831824</ele>
        <time>2020-05-31T14:53:23.546Z</time>
      </trkpt>
      <trkpt lat="50.49366" lon="3.54606">
        <ele>23.779809</ele>
        <time>2020-05-31T14:53:30.903Z</time>
      </trkpt>
      <trkpt lat="50.49335" lon="3.54532">
        <ele>23.701596</ele>
        <time>2020-05-31T14:53:41.935Z</time>
      </trkpt>
      <trkpt lat="50.49317" lon="3.54488">
        <ele>23.655525</ele>
        <time>2020-05-31T14:53:48.394Z</time>
      </trkpt>
      <trkpt lat="50.49184" lon="3.54119">
        <ele>23.950426</ele>
        <time>2020-05-31T14:54:42.606Z</time>
      </trkpt>
      <trkpt lat="50.49111" lon="3.53888">
        <ele>25.204141</ele>
        <time>2020-05-31T14:55:22.695Z</time>
      </trkpt>
      <trkpt lat="50.49106" lon="3.53882">
        <ele>25.26272</ele>
        <time>2020-05-31T14:55:24.340Z</time>
      </trkpt>
      <trkpt lat="50.49099" lon="3.53882">
        <ele>25.331744</ele>
        <time>2020-05-31T14:55:26.440Z</time>
      </trkpt>
      <trkpt lat="50.49014" lon="3.53961">
        <ele>26.280213</ele>
        <time>2020-05-31T14:55:50.518Z</time>
      </trkpt>
      <trkpt lat="50.48996" lon="3.53963">
        <ele>26.45322</ele>
        <time>2020-05-31T14:55:54.786Z</time>
      </trkpt>
      <trkpt lat="50.4899" lon="3.53959">
        <ele>26.517684</ele>
        <time>2020-05-31T14:55:56.528Z</time>
      </trkpt>
      <trkpt lat="50.48886" lon="3.53823">
        <ele>26.651432</ele>
        <time>2020-05-31T14:56:24.395Z</time>
      </trkpt>
      <trkpt lat="50.48748" lon="3.53576">
        <ele>26.080623</ele>
        <time>2020-05-31T14:57:03.945Z</time>
      </trkpt>
      <trkpt lat="50.48727" lon="3.53526">
        <ele>25.941004</ele>
        <time>2020-05-31T14:57:11.243Z</time>
      </trkpt>
      <trkpt lat="50.487" lon="3.53441">
        <ele>25.726013</ele>
        <time>2020-05-31T14:57:22.828Z</time>
      </trkpt>
      <trkpt lat="50.48689" lon="3.53456">
        <ele>25.674348</ele>
        <time>2020-05-31T14:57:25.591Z</time>
      </trkpt>
      <trkpt lat="50.48572" lon="3.53622">
        <ele>25.160715</ele>
        <time>2020-05-31T14:57:55.548Z</time>
      </trkpt>
      <trkpt lat="50.48564" lon="3.53625">
        <ele>25.13618</ele>
        <time>2020-05-31T14:57:57.114Z</time>
      </trkpt>
      <trkpt lat="50.48556" lon="3.53622">
        <ele>25.113725</ele>
        <time>2020-05-31T14:57:58.580Z</time>
      </trkpt>
      <trkpt lat="50.48527" lon="3.5356">
        <ele>24.970373</ele>
        <time>2020-05-31T14:58:08.092Z</time>
      </trkpt>
      <trkpt lat="50.48494" lon="3.53524">
        <ele>24.852869</ele>
        <time>2020-05-31T14:58:16.009Z</time>
      </trkpt>
      <trkpt lat="50.48486" lon="3.53515">
        <ele>24.857693</ele>
        <time>2020-05-31T14:58:17.935Z</time>
      </trkpt>
      <trkpt lat="50.48482" lon="3.53515">
        <ele>24.860051</ele>
        <time>2020-05-31T14:58:18.717Z</time>
      </trkpt>
      <trkpt lat="50.48478" lon="3.53516">
        <ele>24.861795</ele>
        <time>2020-05-31T14:58:19.526Z</time>
      </trkpt>
      <trkpt lat="50.48434" lon="3.53622">
        <ele>24.903262</ele>
        <time>2020-05-31T14:58:35.982Z</time>
      </trkpt>
      <trkpt lat="50.48423" lon="3.53636">
        <ele>24.9102</ele>
        <time>2020-05-31T14:58:38.799Z</time>
      </trkpt>
      <trkpt lat="50.48362" lon="3.53615">
        <ele>24.942444</ele>
        <time>2020-05-31T14:58:51.938Z</time>
      </trkpt>
      <trkpt lat="50.48343" lon="3.53628">
        <ele>24.949023</ele>
        <time>2020-05-31T14:58:56.123Z</time>
      </trkpt>
      <trkpt lat="50.48311" lon="3.53687">
        <ele>24.962997</ele>
        <time>2020-05-31T14:59:06.587Z</time>
      </trkpt>
      <trkpt lat="50.48278" lon="3.53763">
        <ele>24.979537</ele>
        <time>2020-05-31T14:59:18.772Z</time>
      </trkpt>
      <trkpt lat="50.48262" lon="3.538">
        <ele>24.987648</ele>
        <time>2020-05-31T14:59:24.577Z</time>
      </trkpt>
      <trkpt lat="50.48182" lon="3.5368">
        <ele>24.636627</ele>
        <time>2020-05-31T14:59:45.634Z</time>
      </trkpt>
      <trkpt lat="50.48077" lon="3.53517">
        <ele>23.971952</ele>
        <time>2020-05-31T15:00:12.781Z</time>
      </trkpt>
      <trkpt lat="50.48044" lon="3.53466">
        <ele>23.752747</ele>
        <time>2020-05-31T15:00:21.200Z</time>
      </trkpt>
      <trkpt lat="50.48024" lon="3.53449">
        <ele>23.64003</ele>
        <time>2020-05-31T15:00:25.562Z</time>
      </trkpt>
      <trkpt lat="50.47987" lon="3.53443">
        <ele>23.461005</ele>
        <time>2020-05-31T15:00:32.582Z</time>
      </trkpt>
      <trkpt lat="50.47976" lon="3.53427">
        <ele>23.38909</ele>
        <time>2020-05-31T15:00:35.451Z</time>
      </trkpt>
      <trkpt lat="50.47967" lon="3.53408">
        <ele>23.325411</ele>
        <time>2020-05-31T15:00:38.248Z</time>
      </trkpt>
      <trkpt lat="50.47944" lon="3.5332">
        <ele>23.112443</ele>
        <time>2020-05-31T15:00:49.855Z</time>
      </trkpt>
      <trkpt lat="50.47933" lon="3.53279">
        <ele>23.012521</ele>
        <time>2020-05-31T15:00:55.315Z</time>
      </trkpt>
      <trkpt lat="50.47909" lon="3.53255">
        <ele>22.910671</ele>
        <time>2020-05-31T15:01:00.801Z</time>
      </trkpt>
      <trkpt lat="50.47888" lon="3.53243">
        <ele>22.834087</ele>
        <time>2020-05-31T15:01:04.887Z</time>
      </trkpt>
      <trkpt lat="50.4787" lon="3.53234">
        <ele>22.767046</ele>
        <time>2020-05-31T15:01:08.544Z</time>
      </trkpt>
      <trkpt lat="50.47857" lon="3.53214">
        <ele>22.703204</ele>
        <time>2020-05-31T15:01:12.072Z</time>
      </trkpt>
      <trkpt lat="50.47844" lon="3.53177">
        <ele>22.620792</ele>
        <time>2020-05-31T15:01:17.219Z</time>
      </trkpt>
      <trkpt lat="50.47818" lon="3.53077">
        <ele>22.412331</ele>
        <time>2020-05-31T15:01:30.155Z</time>
      </trkpt>
      <trkpt lat="50.47795" lon="3.52988">
        <ele>22.226062</ele>
        <time>2020-05-31T15:01:41.933Z</time>
      </trkpt>
      <trkpt lat="50.47789" lon="3.52961">
        <ele>22.170781</ele>
        <time>2020-05-31T15:01:45.468Z</time>
      </trkpt>
      <trkpt lat="50.47714" lon="3.52818">
        <ele>21.83685</ele>
        <time>2020-05-31T15:02:08.217Z</time>
      </trkpt>
      <trkpt lat="50.47574" lon="3.52551">
        <ele>21.43107</ele>
        <time>2020-05-31T15:02:50.970Z</time>
      </trkpt>
      <trkpt lat="50.47542" lon="3.52492">
        <ele>21.518284</ele>
        <time>2020-05-31T15:03:01.343Z</time>
      </trkpt>
      <trkpt lat="50.47531" lon="3.52473">
        <ele>21.590552</ele>
        <time>2020-05-31T15:03:04.842Z</time>
      </trkpt>
      <trkpt lat="50.47494" lon="3.52402">
        <ele>21.84437</ele>
        <time>2020-05-31T15:03:17.217Z</time>
      </trkpt>
      <trkpt lat="50.47487" lon="3.52388">
        <ele>21.897394</ele>
        <time>2020-05-31T15:03:19.944Z</time>
      </trkpt>
      <trkpt lat="50.4747" lon="3.52408">
        <ele>21.991886</ele>
        <time>2020-05-31T15:03:23.595Z</time>
      </trkpt>
      <trkpt lat="50.47441" lon="3.52435">
        <ele>22.141262</ele>
        <time>2020-05-31T15:03:29.627Z</time>
      </trkpt>
      <trkpt lat="50.47409" lon="3.52466">
        <ele>22.340981</ele>
        <time>2020-05-31T15:03:36.361Z</time>
      </trkpt>
      <trkpt lat="50.47392" lon="3.52485">
        <ele>22.461061</ele>
        <time>2020-05-31T15:03:40.151Z</time>
      </trkpt>
      <trkpt lat="50.47366" lon="3.52526">
        <ele>22.678072</ele>
        <time>2020-05-31T15:03:46.994Z</time>
      </trkpt>
      <trkpt lat="50.47336" lon="3.5257">
        <ele>22.917839</ele>
        <time>2020-05-31T15:03:54.184Z</time>
      </trkpt>
      <trkpt lat="50.47262" lon="3.52676">
        <ele>23.054641</ele>
        <time>2020-05-31T15:04:10.221Z</time>
      </trkpt>
      <trkpt lat="50.47247" lon="3.52657">
        <ele>22.977082</ele>
        <time>2020-05-31T15:04:12.972Z</time>
      </trkpt>
      <trkpt lat="50.47209" lon="3.52597">
        <ele>22.760594</ele>
        <time>2020-05-31T15:04:20.438Z</time>
      </trkpt>
      <trkpt lat="50.47173" lon="3.5254">
        <ele>22.554401</ele>
        <time>2020-05-31T15:04:26.722Z</time>
      </trkpt>
      <trkpt lat="50.47135" lon="3.52477">
        <ele>21.723584</ele>
        <time>2020-05-31T15:04:33.264Z</time>
      </trkpt>
      <trkpt lat="50.47084" lon="3.52412">
        <ele>20.595822</ele>
        <time>2020-05-31T15:04:40.344Z</time>
      </trkpt>
      <trkpt lat="50.47066" lon="3.52375">
        <ele>20.078594</ele>
        <time>2020-05-31T15:04:43.592Z</time>
      </trkpt>
      <trkpt lat="50.47043" lon="3.5234">
        <ele>19.526979</ele>
        <time>2020-05-31T15:04:47.160Z</time>
      </trkpt>
      <trkpt lat="50.47003" lon="3.52294">
        <ele>18.959303</ele>
        <time>2020-05-31T15:04:52.916Z</time>
      </trkpt>
      <trkpt lat="50.46989" lon="3.52278">
        <ele>18.783635</ele>
        <time>2020-05-31T15:04:54.934Z</time>
      </trkpt>
      <trkpt lat="50.46985" lon="3.52273">
        <ele>18.735498</ele>
        <time>2020-05-31T15:04:55.512Z</time>
      </trkpt>
      <trkpt lat="50.46961" lon="3.52246">
        <ele>18.435052</ele>
        <time>2020-05-31T15:04:59.048Z</time>
      </trkpt>
      <trkpt lat="50.46903" lon="3.52179">
        <ele>17.696758</ele>
        <time>2020-05-31T15:05:08.156Z</time>
      </trkpt>
      <trkpt lat="50.46859" lon="3.52136">
        <ele>17.576926</ele>
        <time>2020-05-31T15:05:15.583Z</time>
      </trkpt>
      <trkpt lat="50.46795" lon="3.52081">
        <ele>17.621562</ele>
        <time>2020-05-31T15:05:27.393Z</time>
      </trkpt>
      <trkpt lat="50.46702" lon="3.52009">
        <ele>17.711359</ele>
        <time>2020-05-31T15:05:43.018Z</time>
      </trkpt>
      <trkpt lat="50.46599" lon="3.5194">
        <ele>17.864498</ele>
        <time>2020-05-31T15:06:00.220Z</time>
      </trkpt>
      <trkpt lat="50.46568" lon="3.51907">
        <ele>17.922015</ele>
        <time>2020-05-31T15:06:06.107Z</time>
      </trkpt>
      <trkpt lat="50.46439" lon="3.5173">
        <ele>18.416311</ele>
        <time>2020-05-31T15:06:33.538Z</time>
      </trkpt>
      <trkpt lat="50.46372" lon="3.51656">
        <ele>18.672637</ele>
        <time>2020-05-31T15:06:46.754Z</time>
      </trkpt>
      <trkpt lat="50.46353" lon="3.51643">
        <ele>18.73697</ele>
        <time>2020-05-31T15:06:50.150Z</time>
      </trkpt>
      <trkpt lat="50.46343" lon="3.51672">
        <ele>18.803631</ele>
        <time>2020-05-31T15:06:53.491Z</time>
      </trkpt>
      <trkpt lat="50.46277" lon="3.51833">
        <ele>19.116743</ele>
        <time>2020-05-31T15:07:13.167Z</time>
      </trkpt>
      <trkpt lat="50.46227" lon="3.52002">
        <ele>19.3557</ele>
        <time>2020-05-31T15:07:31.797Z</time>
      </trkpt>
      <trkpt lat="50.46192" lon="3.52082">
        <ele>19.245147</ele>
        <time>2020-05-31T15:07:40.976Z</time>
      </trkpt>
      <trkpt lat="50.46142" lon="3.52179">
        <ele>19.102988</ele>
        <time>2020-05-31T15:07:51.962Z</time>
      </trkpt>
      <trkpt lat="50.46125" lon="3.52213">
        <ele>19.054054</ele>
        <time>2020-05-31T15:07:55.602Z</time>
      </trkpt>
      <trkpt lat="50.46103" lon="3.52267">
        <ele>18.945545</ele>
        <time>2020-05-31T15:08:01.249Z</time>
      </trkpt>
      <trkpt lat="50.46093" lon="3.52304">
        <ele>18.870463</ele>
        <time>2020-05-31T15:08:04.635Z</time>
      </trkpt>
      <trkpt lat="50.4609" lon="3.52315">
        <ele>18.847829</ele>
        <time>2020-05-31T15:08:05.698Z</time>
      </trkpt>
      <trkpt lat="50.46044" lon="3.52616">
        <ele>18.603489</ele>
        <time>2020-05-31T15:08:33.223Z</time>
      </trkpt>
      <trkpt lat="50.46036" lon="3.52652">
        <ele>18.632461</ele>
        <time>2020-05-31T15:08:37.055Z</time>
      </trkpt>
      <trkpt lat="50.46006" lon="3.52747">
        <ele>18.715745</ele>
        <time>2020-05-31T15:08:48.401Z</time>
      </trkpt>
      <trkpt lat="50.45992" lon="3.52777">
        <ele>18.864043</ele>
        <time>2020-05-31T15:08:52.315Z</time>
      </trkpt>
      <trkpt lat="50.45942" lon="3.52731">
        <ele>19.382433</ele>
        <time>2020-05-31T15:09:02.585Z</time>
      </trkpt>
      <trkpt lat="50.45747" lon="3.52559">
        <ele>21.624384</ele>
        <time>2020-05-31T15:09:45.449Z</time>
      </trkpt>
      <trkpt lat="50.45717" lon="3.52524">
        <ele>22.032295</ele>
        <time>2020-05-31T15:09:52.903Z</time>
      </trkpt>
      <trkpt lat="50.45677" lon="3.52459">
        <ele>22.518986</ele>
        <time>2020-05-31T15:10:03.847Z</time>
      </trkpt>
      <trkpt lat="50.45668" lon="3.52446">
        <ele>22.59829</ele>
        <time>2020-05-31T15:10:06.094Z</time>
      </trkpt>
      <trkpt lat="50.45667" lon="3.52446">
        <ele>22.601648</ele>
        <time>2020-05-31T15:10:06.264Z</time>
      </trkpt>
      <trkpt lat="50.45655" lon="3.52443">
        <ele>22.68301</ele>
        <time>2020-05-31T15:10:08.486Z</time>
      </trkpt>
      <trkpt lat="50.45651" lon="3.52417">
        <ele>22.794081</ele>
        <time>2020-05-31T15:10:11.536Z</time>
      </trkpt>
      <trkpt lat="50.45648" lon="3.52404">
        <ele>22.849533</ele>
        <time>2020-05-31T15:10:13.135Z</time>
      </trkpt>
      <trkpt lat="50.45628" lon="3.52367">
        <ele>23.050983</ele>
        <time>2020-05-31T15:10:18.463Z</time>
      </trkpt>
      <trkpt lat="50.45618" lon="3.52349">
        <ele>23.152287</ele>
        <time>2020-05-31T15:10:21.119Z</time>
      </trkpt>
      <trkpt lat="50.45546" lon="3.52265">
        <ele>23.508451</ele>
        <time>2020-05-31T15:10:35.298Z</time>
      </trkpt>
      <trkpt lat="50.45526" lon="3.52222">
        <ele>23.53571</ele>
        <time>2020-05-31T15:10:40.241Z</time>
      </trkpt>
      <trkpt lat="50.45456" lon="3.52014">
        <ele>23.854843</ele>
        <time>2020-05-31T15:11:02.481Z</time>
      </trkpt>
      <trkpt lat="50.45453" lon="3.52003">
        <ele>23.895014</ele>
        <time>2020-05-31T15:11:03.686Z</time>
      </trkpt>
      <trkpt lat="50.45453" lon="3.5198">
        <ele>23.975088</ele>
        <time>2020-05-31T15:11:06.166Z</time>
      </trkpt>
      <trkpt lat="50.45457" lon="3.51957">
        <ele>24.057963</ele>
        <time>2020-05-31T15:11:08.737Z</time>
      </trkpt>
      <trkpt lat="50.45462" lon="3.51929">
        <ele>24.155999</ele>
        <time>2020-05-31T15:11:11.867Z</time>
      </trkpt>
      <trkpt lat="50.45466" lon="3.51901">
        <ele>24.25708</ele>
        <time>2020-05-31T15:11:15.142Z</time>
      </trkpt>
      <trkpt lat="50.45478" lon="3.51791">
        <ele>24.686613</ele>
        <time>2020-05-31T15:11:28.296Z</time>
      </trkpt>
      <trkpt lat="50.45485" lon="3.51712">
        <ele>25.218109</ele>
        <time>2020-05-31T15:11:38.231Z</time>
      </trkpt>
      <trkpt lat="50.4553" lon="3.5162">
        <ele>25.997582</ele>
        <time>2020-05-31T15:11:52.907Z</time>
      </trkpt>
      <trkpt lat="50.45569" lon="3.51518">
        <ele>26.68582</ele>
        <time>2020-05-31T15:12:06.762Z</time>
      </trkpt>
      <trkpt lat="50.45583" lon="3.51477">
        <ele>26.887364</ele>
        <time>2020-05-31T15:12:12.024Z</time>
      </trkpt>
      <trkpt lat="50.45601" lon="3.51427">
        <ele>27.139363</ele>
        <time>2020-05-31T15:12:18.431Z</time>
      </trkpt>
      <trkpt lat="50.45626" lon="3.51375">
        <ele>27.421147</ele>
        <time>2020-05-31T15:12:25.447Z</time>
      </trkpt>
      <trkpt lat="50.45649" lon="3.51328">
        <ele>27.682827</ele>
        <time>2020-05-31T15:12:31.947Z</time>
      </trkpt>
      <trkpt lat="50.45666" lon="3.51274">
        <ele>27.898112</ele>
        <time>2020-05-31T15:12:38.405Z</time>
      </trkpt>
      <trkpt lat="50.4572" lon="3.51037">
        <ele>28.707296</ele>
        <time>2020-05-31T15:13:06.105Z</time>
      </trkpt>
      <trkpt lat="50.45749" lon="3.50921">
        <ele>28.788996</ele>
        <time>2020-05-31T15:13:18.964Z</time>
      </trkpt>
      <trkpt lat="50.4577" lon="3.5083">
        <ele>28.852355</ele>
        <time>2020-05-31T15:13:28.027Z</time>
      </trkpt>
      <trkpt lat="50.4589" lon="3.50312">
        <ele>27.207376</ele>
        <time>2020-05-31T15:14:13.839Z</time>
      </trkpt>
      <trkpt lat="50.45941" lon="3.50087">
        <ele>26.962215</ele>
        <time>2020-05-31T15:14:36.293Z</time>
      </trkpt>
      <trkpt lat="50.45955" lon="3.50033">
        <ele>26.933613</ele>
        <time>2020-05-31T15:14:41.955Z</time>
      </trkpt>
      <trkpt lat="50.46013" lon="3.49779">
        <ele>26.493145</ele>
        <time>2020-05-31T15:15:06.080Z</time>
      </trkpt>
      <trkpt lat="50.46016" lon="3.49739">
        <ele>26.418073</ele>
        <time>2020-05-31T15:15:09.624Z</time>
      </trkpt>
      <trkpt lat="50.46009" lon="3.49667">
        <ele>26.179784</ele>
        <time>2020-05-31T15:15:15.760Z</time>
      </trkpt>
      <trkpt lat="50.45991" lon="3.49526">
        <ele>25.673825</ele>
        <time>2020-05-31T15:15:27.702Z</time>
      </trkpt>
      <trkpt lat="50.45991" lon="3.49518">
        <ele>25.646327</ele>
        <time>2020-05-31T15:15:28.334Z</time>
      </trkpt>
      <trkpt lat="50.45991" lon="3.4951">
        <ele>25.616983</ele>
        <time>2020-05-31T15:15:29.012Z</time>
      </trkpt>
      <trkpt lat="50.45993" lon="3.49508">
        <ele>25.607837</ele>
        <time>2020-05-31T15:15:29.219Z</time>
      </trkpt>
      <trkpt lat="50.45994" lon="3.49504">
        <ele>25.590637</ele>
        <time>2020-05-31T15:15:29.639Z</time>
      </trkpt>
      <trkpt lat="50.45994" lon="3.49501">
        <ele>25.581455</ele>
        <time>2020-05-31T15:15:29.845Z</time>
      </trkpt>
      <trkpt lat="50.45993" lon="3.49499">
        <ele>25.574531</ele>
        <time>2020-05-31T15:15:30.007Z</time>
      </trkpt>
      <trkpt lat="50.45993" lon="3.49498">
        <ele>25.567687</ele>
        <time>2020-05-31T15:15:30.177Z</time>
      </trkpt>
      <trkpt lat="50.45992" lon="3.49497">
        <ele>25.560718</ele>
        <time>2020-05-31T15:15:30.339Z</time>
      </trkpt>
      <trkpt lat="50.4599" lon="3.49496">
        <ele>25.552468</ele>
        <time>2020-05-31T15:15:30.525Z</time>
      </trkpt>
      <trkpt lat="50.45989" lon="3.49496">
        <ele>25.544684</ele>
        <time>2020-05-31T15:15:30.710Z</time>
      </trkpt>
      <trkpt lat="50.45987" lon="3.4949">
        <ele>25.523446</ele>
        <time>2020-05-31T15:15:31.202Z</time>
      </trkpt>
      <trkpt lat="50.45985" lon="3.4948">
        <ele>25.486324</ele>
        <time>2020-05-31T15:15:32.073Z</time>
      </trkpt>
      <trkpt lat="50.45938" lon="3.49122">
        <ele>24.028924</ele>
        <time>2020-05-31T15:16:02.618Z</time>
      </trkpt>
      <trkpt lat="50.45935" lon="3.49098">
        <ele>23.909915</ele>
        <time>2020-05-31T15:16:04.532Z</time>
      </trkpt>
      <trkpt lat="50.45925" lon="3.49016">
        <ele>23.50157</ele>
        <time>2020-05-31T15:16:11.407Z</time>
      </trkpt>
      <trkpt lat="50.46005" lon="3.48903">
        <ele>22.5147</ele>
        <time>2020-05-31T15:16:30.362Z</time>
      </trkpt>
      <trkpt lat="50.46192" lon="3.48632">
        <ele>19.487432</ele>
        <time>2020-05-31T15:17:12.844Z</time>
      </trkpt>
      <trkpt lat="50.46267" lon="3.48523">
        <ele>18.595024</ele>
        <time>2020-05-31T15:17:31.157Z</time>
      </trkpt>
      <trkpt lat="50.46352" lon="3.484">
        <ele>18.204639</ele>
        <time>2020-05-31T15:17:53.376Z</time>
      </trkpt>
      <trkpt lat="50.46455" lon="3.48251">
        <ele>17.888912</ele>
        <time>2020-05-31T15:18:21.227Z</time>
      </trkpt>
      <trkpt lat="50.46455" lon="3.48251">
        <ele>17.888912</ele>
        <time>2020-05-31T15:18:21.228Z</time>
      </trkpt>
      <trkpt lat="50.46507" lon="3.48174">
        <ele>17.753525</ele>
        <time>2020-05-31T15:18:34.900Z</time>
      </trkpt>
      <trkpt lat="50.46551" lon="3.48072">
        <ele>17.502826</ele>
        <time>2020-05-31T15:18:49.933Z</time>
      </trkpt>
      <trkpt lat="50.46627" lon="3.47989">
        <ele>17.205179</ele>
        <time>2020-05-31T15:19:07.564Z</time>
      </trkpt>
      <trkpt lat="50.46703" lon="3.47893">
        <ele>16.975729</ele>
        <time>2020-05-31T15:19:26.409Z</time>
      </trkpt>
      <trkpt lat="50.46729" lon="3.47857">
        <ele>16.89812</ele>
        <time>2020-05-31T15:19:31.318Z</time>
      </trkpt>
      <trkpt lat="50.46784" lon="3.47766">
        <ele>16.740445</ele>
        <time>2020-05-31T15:19:42.695Z</time>
      </trkpt>
      <trkpt lat="50.46852" lon="3.47621">
        <ele>16.593047</ele>
        <time>2020-05-31T15:19:59.147Z</time>
      </trkpt>
      <trkpt lat="50.46892" lon="3.47496">
        <ele>16.480582</ele>
        <time>2020-05-31T15:20:11.854Z</time>
      </trkpt>
      <trkpt lat="50.469" lon="3.47464">
        <ele>16.45302</ele>
        <time>2020-05-31T15:20:15.003Z</time>
      </trkpt>
      <trkpt lat="50.46897" lon="3.47433">
        <ele>16.428577</ele>
        <time>2020-05-31T15:20:17.747Z</time>
      </trkpt>
      <trkpt lat="50.46868" lon="3.47366">
        <ele>16.364309</ele>
        <time>2020-05-31T15:20:25.280Z</time>
      </trkpt>
      <trkpt lat="50.46868" lon="3.47341">
        <ele>16.344954</ele>
        <time>2020-05-31T15:20:27.614Z</time>
      </trkpt>
      <trkpt lat="50.46869" lon="3.47337">
        <ele>16.341474</ele>
        <time>2020-05-31T15:20:27.951Z</time>
      </trkpt>
      <trkpt lat="50.46874" lon="3.47324">
        <ele>16.328956</ele>
        <time>2020-05-31T15:20:29.487Z</time>
      </trkpt>
      <trkpt lat="50.46912" lon="3.47288">
        <ele>16.314288</ele>
        <time>2020-05-31T15:20:36.068Z</time>
      </trkpt>
      <trkpt lat="50.46932" lon="3.47258">
        <ele>16.315794</ele>
        <time>2020-05-31T15:20:40.188Z</time>
      </trkpt>
      <trkpt lat="50.46955" lon="3.4722">
        <ele>16.31762</ele>
        <time>2020-05-31T15:20:45.243Z</time>
      </trkpt>
      <trkpt lat="50.46967" lon="3.47199">
        <ele>16.318588</ele>
        <time>2020-05-31T15:20:48.094Z</time>
      </trkpt>
      <trkpt lat="50.47005" lon="3.47114">
        <ele>16.322135</ele>
        <time>2020-05-31T15:20:57.745Z</time>
      </trkpt>
      <trkpt lat="50.47043" lon="3.47002">
        <ele>16.193198</ele>
        <time>2020-05-31T15:21:09.558Z</time>
      </trkpt>
      <trkpt lat="50.47063" lon="3.46934">
        <ele>16.112823</ele>
        <time>2020-05-31T15:21:16.311Z</time>
      </trkpt>
      <trkpt lat="50.47076" lon="3.46911">
        <ele>16.080791</ele>
        <time>2020-05-31T15:21:19.023Z</time>
      </trkpt>
      <trkpt lat="50.47022" lon="3.46798">
        <ele>15.916513</ele>
        <time>2020-05-31T15:21:31.227Z</time>
      </trkpt>
      <trkpt lat="50.46992" lon="3.4673">
        <ele>15.81634</ele>
        <time>2020-05-31T15:21:38.510Z</time>
      </trkpt>
      <trkpt lat="50.4699" lon="3.46702">
        <ele>15.78155</ele>
        <time>2020-05-31T15:21:41.289Z</time>
      </trkpt>
      <trkpt lat="50.46993" lon="3.46686">
        <ele>15.761671</ele>
        <time>2020-05-31T15:21:42.681Z</time>
      </trkpt>
      <trkpt lat="50.46999" lon="3.46654">
        <ele>15.720538</ele>
        <time>2020-05-31T15:21:46.002Z</time>
      </trkpt>
      <trkpt lat="50.47001" lon="3.46644">
        <ele>15.707796</ele>
        <time>2020-05-31T15:21:46.965Z</time>
      </trkpt>
      <trkpt lat="50.47002" lon="3.46641">
        <ele>15.703552</ele>
        <time>2020-05-31T15:21:47.257Z</time>
      </trkpt>
      <trkpt lat="50.47006" lon="3.4663">
        <ele>15.688252</ele>
        <time>2020-05-31T15:21:48.351Z</time>
      </trkpt>
      <trkpt lat="50.47026" lon="3.46579">
        <ele>15.704047</ele>
        <time>2020-05-31T15:21:54.048Z</time>
      </trkpt>
      <trkpt lat="50.4703" lon="3.46565">
        <ele>15.713055</ele>
        <time>2020-05-31T15:21:55.822Z</time>
      </trkpt>
      <trkpt lat="50.47039" lon="3.46496">
        <ele>15.753911</ele>
        <time>2020-05-31T15:22:02.231Z</time>
      </trkpt>
      <trkpt lat="50.47035" lon="3.46455">
        <ele>15.777956</ele>
        <time>2020-05-31T15:22:06.218Z</time>
      </trkpt>
      <trkpt lat="50.47023" lon="3.46407">
        <ele>15.807711</ele>
        <time>2020-05-31T15:22:11.078Z</time>
      </trkpt>
      <trkpt lat="50.47019" lon="3.46397">
        <ele>15.815098</ele>
        <time>2020-05-31T15:22:12.659Z</time>
      </trkpt>
      <trkpt lat="50.47015" lon="3.46388">
        <ele>15.821355</ele>
        <time>2020-05-31T15:22:13.479Z</time>
      </trkpt>
      <trkpt lat="50.46967" lon="3.46315">
        <ele>16.040743</ele>
        <time>2020-05-31T15:22:24.610Z</time>
      </trkpt>
      <trkpt lat="50.46965" lon="3.46304">
        <ele>16.072904</ele>
        <time>2020-05-31T15:22:25.516Z</time>
      </trkpt>
      <trkpt lat="50.46964" lon="3.46297">
        <ele>16.092478</ele>
        <time>2020-05-31T15:22:26.444Z</time>
      </trkpt>
      <trkpt lat="50.46976" lon="3.4622">
        <ele>16.311363</ele>
        <time>2020-05-31T15:22:34.643Z</time>
      </trkpt>
      <trkpt lat="50.46974" lon="3.46142">
        <ele>16.524286</ele>
        <time>2020-05-31T15:22:43.044Z</time>
      </trkpt>
      <trkpt lat="50.46985" lon="3.46041">
        <ele>16.986328</ele>
        <time>2020-05-31T15:22:54.628Z</time>
      </trkpt>
      <trkpt lat="50.46983" lon="3.45999">
        <ele>17.211473</ele>
        <time>2020-05-31T15:22:59.494Z</time>
      </trkpt>
      <trkpt lat="50.46982" lon="3.45984">
        <ele>17.288586</ele>
        <time>2020-05-31T15:23:01.238Z</time>
      </trkpt>
      <trkpt lat="50.46982" lon="3.45983">
        <ele>17.29339</ele>
        <time>2020-05-31T15:23:01.535Z</time>
      </trkpt>
      <trkpt lat="50.46949" lon="3.45908">
        <ele>17.779932</ele>
        <time>2020-05-31T15:23:12.069Z</time>
      </trkpt>
      <trkpt lat="50.46912" lon="3.45839">
        <ele>18.187864</ele>
        <time>2020-05-31T15:23:22.922Z</time>
      </trkpt>
      <trkpt lat="50.46864" lon="3.45759">
        <ele>18.453271</ele>
        <time>2020-05-31T15:23:35.830Z</time>
      </trkpt>
      <trkpt lat="50.46786" lon="3.45654">
        <ele>18.701189</ele>
        <time>2020-05-31T15:23:51.432Z</time>
      </trkpt>
      <trkpt lat="50.46771" lon="3.45621">
        <ele>18.390231</ele>
        <time>2020-05-31T15:23:54.576Z</time>
      </trkpt>
      <trkpt lat="50.46766" lon="3.45612">
        <ele>18.295432</ele>
        <time>2020-05-31T15:23:55.780Z</time>
      </trkpt>
      <trkpt lat="50.46759" lon="3.45596">
        <ele>18.145436</ele>
        <time>2020-05-31T15:23:57.209Z</time>
      </trkpt>
      <trkpt lat="50.46756" lon="3.45588">
        <ele>18.071785</ele>
        <time>2020-05-31T15:23:57.905Z</time>
      </trkpt>
      <trkpt lat="50.46752" lon="3.45577">
        <ele>17.971414</ele>
        <time>2020-05-31T15:23:58.915Z</time>
      </trkpt>
      <trkpt lat="50.46746" lon="3.45554">
        <ele>17.788345</ele>
        <time>2020-05-31T15:24:00.767Z</time>
      </trkpt>
      <trkpt lat="50.46742" lon="3.45535">
        <ele>17.634007</ele>
        <time>2020-05-31T15:24:02.170Z</time>
      </trkpt>
      <trkpt lat="50.46731" lon="3.45472">
        <ele>17.121384</ele>
        <time>2020-05-31T15:24:07.085Z</time>
      </trkpt>
      <trkpt lat="50.46726" lon="3.45457">
        <ele>16.991676</ele>
        <time>2020-05-31T15:24:08.447Z</time>
      </trkpt>
      <trkpt lat="50.46722" lon="3.45447">
        <ele>16.906203</ele>
        <time>2020-05-31T15:24:09.194Z</time>
      </trkpt>
      <trkpt lat="50.46717" lon="3.45443">
        <ele>16.839532</ele>
        <time>2020-05-31T15:24:09.766Z</time>
      </trkpt>
      <trkpt lat="50.46689" lon="3.45418">
        <ele>16.447393</ele>
        <time>2020-05-31T15:24:13.395Z</time>
      </trkpt>
      <trkpt lat="50.4668" lon="3.45405">
        <ele>16.299163</ele>
        <time>2020-05-31T15:24:14.705Z</time>
      </trkpt>
      <trkpt lat="50.46673" lon="3.45396">
        <ele>16.195811</ele>
        <time>2020-05-31T15:24:15.673Z</time>
      </trkpt>
      <trkpt lat="50.46666" lon="3.45387">
        <ele>16.085436</ele>
        <time>2020-05-31T15:24:16.715Z</time>
      </trkpt>
      <trkpt lat="50.46665" lon="3.45387">
        <ele>16.07647</ele>
        <time>2020-05-31T15:24:16.779Z</time>
      </trkpt>
      <trkpt lat="50.46617" lon="3.45316">
        <ele>15.289772</ele>
        <time>2020-05-31T15:24:24.301Z</time>
      </trkpt>
      <trkpt lat="50.46611" lon="3.45296">
        <ele>15.118693</ele>
        <time>2020-05-31T15:24:25.944Z</time>
      </trkpt>
      <trkpt lat="50.46608" lon="3.45278">
        <ele>14.976304</ele>
        <time>2020-05-31T15:24:27.542Z</time>
      </trkpt>
      <trkpt lat="50.46607" lon="3.45264">
        <ele>14.870248</ele>
        <time>2020-05-31T15:24:28.783Z</time>
      </trkpt>
      <trkpt lat="50.46608" lon="3.4526">
        <ele>14.836273</ele>
        <time>2020-05-31T15:24:29.180Z</time>
      </trkpt>
      <trkpt lat="50.46608" lon="3.45256">
        <ele>14.801724</ele>
        <time>2020-05-31T15:24:29.567Z</time>
      </trkpt>
      <trkpt lat="50.46614" lon="3.45243">
        <ele>14.68299</ele>
        <time>2020-05-31T15:24:30.801Z</time>
      </trkpt>
      <trkpt lat="50.46624" lon="3.45222">
        <ele>14.477009</ele>
        <time>2020-05-31T15:24:33.255Z</time>
      </trkpt>
      <trkpt lat="50.46637" lon="3.45205">
        <ele>14.55419</ele>
        <time>2020-05-31T15:24:35.526Z</time>
      </trkpt>
      <trkpt lat="50.46649" lon="3.45188">
        <ele>14.636677</ele>
        <time>2020-05-31T15:24:38.019Z</time>
      </trkpt>
      <trkpt lat="50.46746" lon="3.45059">
        <ele>15.307346</ele>
        <time>2020-05-31T15:25:00.578Z</time>
      </trkpt>
      <trkpt lat="50.46759" lon="3.45033">
        <ele>15.417877</ele>
        <time>2020-05-31T15:25:04.540Z</time>
      </trkpt>
      <trkpt lat="50.46768" lon="3.45001">
        <ele>15.551389</ele>
        <time>2020-05-31T15:25:08.869Z</time>
      </trkpt>
      <trkpt lat="50.46777" lon="3.44958">
        <ele>15.723</ele>
        <time>2020-05-31T15:25:14.119Z</time>
      </trkpt>
      <trkpt lat="50.46781" lon="3.44932">
        <ele>15.822028</ele>
        <time>2020-05-31T15:25:17.086Z</time>
      </trkpt>
      <trkpt lat="50.46809" lon="3.4475">
        <ele>16.51768</ele>
        <time>2020-05-31T15:25:37.001Z</time>
      </trkpt>
      <trkpt lat="50.46828" lon="3.44616">
        <ele>16.854378</ele>
        <time>2020-05-31T15:25:50.721Z</time>
      </trkpt>
      <trkpt lat="50.46829" lon="3.44533">
        <ele>17.056998</ele>
        <time>2020-05-31T15:25:59.484Z</time>
      </trkpt>
      <trkpt lat="50.46832" lon="3.44489">
        <ele>17.166137</ele>
        <time>2020-05-31T15:26:04.375Z</time>
      </trkpt>
      <trkpt lat="50.46842" lon="3.44451">
        <ele>17.296188</ele>
        <time>2020-05-31T15:26:08.971Z</time>
      </trkpt>
      <trkpt lat="50.46863" lon="3.4439">
        <ele>17.518429</ele>
        <time>2020-05-31T15:26:16.473Z</time>
      </trkpt>
      <trkpt lat="50.46871" lon="3.44361">
        <ele>17.622414</ele>
        <time>2020-05-31T15:26:20.057Z</time>
      </trkpt>
      <trkpt lat="50.4689" lon="3.443">
        <ele>17.841086</ele>
        <time>2020-05-31T15:26:27.353Z</time>
      </trkpt>
      <trkpt lat="50.46893" lon="3.4429">
        <ele>17.879219</ele>
        <time>2020-05-31T15:26:28.611Z</time>
      </trkpt>
      <trkpt lat="50.46895" lon="3.44286">
        <ele>17.895972</ele>
        <time>2020-05-31T15:26:29.180Z</time>
      </trkpt>
      <trkpt lat="50.46904" lon="3.44268">
        <ele>17.968038</ele>
        <time>2020-05-31T15:26:31.636Z</time>
      </trkpt>
      <trkpt lat="50.4697" lon="3.44166">
        <ele>18.066419</ele>
        <time>2020-05-31T15:26:46.556Z</time>
      </trkpt>
      <trkpt lat="50.47003" lon="3.44054">
        <ele>18.028793</ele>
        <time>2020-05-31T15:26:57.683Z</time>
      </trkpt>
      <trkpt lat="50.47021" lon="3.44011">
        <ele>18.012897</ele>
        <time>2020-05-31T15:27:02.165Z</time>
      </trkpt>
      <trkpt lat="50.47043" lon="3.43975">
        <ele>17.876367</ele>
        <time>2020-05-31T15:27:06.396Z</time>
      </trkpt>
      <trkpt lat="50.47089" lon="3.43934">
        <ele>17.644067</ele>
        <time>2020-05-31T15:27:13.331Z</time>
      </trkpt>
      <trkpt lat="50.47133" lon="3.43912">
        <ele>17.442619</ele>
        <time>2020-05-31T15:27:19.397Z</time>
      </trkpt>
      <trkpt lat="50.4716" lon="3.43897">
        <ele>17.315246</ele>
        <time>2020-05-31T15:27:23.225Z</time>
      </trkpt>
      <trkpt lat="50.47181" lon="3.43875">
        <ele>17.208853</ele>
        <time>2020-05-31T15:27:26.675Z</time>
      </trkpt>
      <trkpt lat="50.47213" lon="3.43826">
        <ele>17.097818</ele>
        <time>2020-05-31T15:27:32.796Z</time>
      </trkpt>
      <trkpt lat="50.47227" lon="3.43795">
        <ele>17.038894</ele>
        <time>2020-05-31T15:27:36.153Z</time>
      </trkpt>
      <trkpt lat="50.47243" lon="3.43737">
        <ele>16.939327</ele>
        <time>2020-05-31T15:27:41.727Z</time>
      </trkpt>
      <trkpt lat="50.47256" lon="3.43705">
        <ele>16.87857</ele>
        <time>2020-05-31T15:27:45.149Z</time>
      </trkpt>
      <trkpt lat="50.47305" lon="3.43634">
        <ele>16.836422</ele>
        <time>2020-05-31T15:27:54.690Z</time>
      </trkpt>
      <trkpt lat="50.47315" lon="3.43617">
        <ele>16.876984</ele>
        <time>2020-05-31T15:27:56.908Z</time>
      </trkpt>
      <trkpt lat="50.47333" lon="3.43582">
        <ele>16.955801</ele>
        <time>2020-05-31T15:28:01.468Z</time>
      </trkpt>
      <trkpt lat="50.47343" lon="3.43555">
        <ele>17.01098</ele>
        <time>2020-05-31T15:28:04.667Z</time>
      </trkpt>
      <trkpt lat="50.47355" lon="3.43514">
        <ele>17.08942</ele>
        <time>2020-05-31T15:28:09.413Z</time>
      </trkpt>
      <trkpt lat="50.47363" lon="3.4346">
        <ele>17.185211</ele>
        <time>2020-05-31T15:28:15.225Z</time>
      </trkpt>
      <trkpt lat="50.4737" lon="3.43392">
        <ele>17.351482</ele>
        <time>2020-05-31T15:28:22.618Z</time>
      </trkpt>
      <trkpt lat="50.47371" lon="3.43382">
        <ele>17.390249</ele>
        <time>2020-05-31T15:28:23.901Z</time>
      </trkpt>
      <trkpt lat="50.47378" lon="3.43333">
        <ele>17.581438</ele>
        <time>2020-05-31T15:28:29.382Z</time>
      </trkpt>
      <trkpt lat="50.47388" lon="3.43289">
        <ele>17.755613</ele>
        <time>2020-05-31T15:28:34.441Z</time>
      </trkpt>
      <trkpt lat="50.47394" lon="3.43256">
        <ele>17.884265</ele>
        <time>2020-05-31T15:28:38.491Z</time>
      </trkpt>
      <trkpt lat="50.47396" lon="3.43242">
        <ele>17.936036</ele>
        <time>2020-05-31T15:28:39.985Z</time>
      </trkpt>
      <trkpt lat="50.47398" lon="3.43194">
        <ele>18.119891</ele>
        <time>2020-05-31T15:28:45.642Z</time>
      </trkpt>
      <trkpt lat="50.47403" lon="3.43012">
        <ele>18.639177</ele>
        <time>2020-05-31T15:29:04.843Z</time>
      </trkpt>
      <trkpt lat="50.47406" lon="3.42913">
        <ele>18.881177</ele>
        <time>2020-05-31T15:29:14.921Z</time>
      </trkpt>
      <trkpt lat="50.47407" lon="3.4291">
        <ele>18.889854</ele>
        <time>2020-05-31T15:29:15.225Z</time>
      </trkpt>
      <trkpt lat="50.4741" lon="3.42874">
        <ele>18.978865</ele>
        <time>2020-05-31T15:29:18.986Z</time>
      </trkpt>
      <trkpt lat="50.47415" lon="3.42835">
        <ele>19.026537</ele>
        <time>2020-05-31T15:29:23.057Z</time>
      </trkpt>
      <trkpt lat="50.47422" lon="3.42797">
        <ele>19.036556</ele>
        <time>2020-05-31T15:29:27.183Z</time>
      </trkpt>
      <trkpt lat="50.47448" lon="3.42668">
        <ele>19.070875</ele>
        <time>2020-05-31T15:29:40.210Z</time>
      </trkpt>
      <trkpt lat="50.47452" lon="3.42652">
        <ele>19.075369</ele>
        <time>2020-05-31T15:29:42.106Z</time>
      </trkpt>
      <trkpt lat="50.47437" lon="3.42644">
        <ele>19.081695</ele>
        <time>2020-05-31T15:29:44.465Z</time>
      </trkpt>
      <trkpt lat="50.47413" lon="3.42629">
        <ele>19.091853</ele>
        <time>2020-05-31T15:29:48.118Z</time>
      </trkpt>
      <trkpt lat="50.47395" lon="3.42618">
        <ele>18.96578</ele>
        <time>2020-05-31T15:29:50.549Z</time>
      </trkpt>
      <trkpt lat="50.47375" lon="3.42607">
        <ele>18.803435</ele>
        <time>2020-05-31T15:29:53.519Z</time>
      </trkpt>
      <trkpt lat="50.47365" lon="3.42604">
        <ele>18.729997</ele>
        <time>2020-05-31T15:29:54.767Z</time>
      </trkpt>
      <trkpt lat="50.47357" lon="3.42605">
        <ele>18.671914</ele>
        <time>2020-05-31T15:29:55.684Z</time>
      </trkpt>
      <trkpt lat="50.47343" lon="3.42607">
        <ele>18.562734</ele>
        <time>2020-05-31T15:29:57.601Z</time>
      </trkpt>
      <trkpt lat="50.47341" lon="3.42599">
        <ele>18.522049</ele>
        <time>2020-05-31T15:29:58.287Z</time>
      </trkpt>
      <trkpt lat="50.47335" lon="3.4259">
        <ele>18.460558</ele>
        <time>2020-05-31T15:29:59.339Z</time>
      </trkpt>
      <trkpt lat="50.47333" lon="3.42587">
        <ele>18.440857</ele>
        <time>2020-05-31T15:29:59.613Z</time>
      </trkpt>
      <trkpt lat="50.47299" lon="3.42556">
        <ele>18.152739</ele>
        <time>2020-05-31T15:30:04.453Z</time>
      </trkpt>
      <trkpt lat="50.47281" lon="3.42507">
        <ele>17.882467</ele>
        <time>2020-05-31T15:30:08.886Z</time>
      </trkpt>
      <trkpt lat="50.47266" lon="3.42477">
        <ele>17.714794</ele>
        <time>2020-05-31T15:30:11.944Z</time>
      </trkpt>
      <trkpt lat="50.47249" lon="3.42447">
        <ele>17.580086</ele>
        <time>2020-05-31T15:30:14.976Z</time>
      </trkpt>
      <trkpt lat="50.47184" lon="3.42343">
        <ele>17.080364</ele>
        <time>2020-05-31T15:30:26.947Z</time>
      </trkpt>
      <trkpt lat="50.47106" lon="3.42256">
        <ele>16.824007</ele>
        <time>2020-05-31T15:30:40.876Z</time>
      </trkpt>
      <trkpt lat="50.47086" lon="3.42218">
        <ele>16.852044</ele>
        <time>2020-05-31T15:30:45.814Z</time>
      </trkpt>
      <trkpt lat="50.47085" lon="3.42188">
        <ele>16.869057</ele>
        <time>2020-05-31T15:30:48.810Z</time>
      </trkpt>
      <trkpt lat="50.47118" lon="3.42056">
        <ele>16.947751</ele>
        <time>2020-05-31T15:31:02.973Z</time>
      </trkpt>
      <trkpt lat="50.47122" lon="3.42028">
        <ele>16.947869</ele>
        <time>2020-05-31T15:31:05.805Z</time>
      </trkpt>
      <trkpt lat="50.47119" lon="3.42004">
        <ele>16.947969</ele>
        <time>2020-05-31T15:31:08.206Z</time>
      </trkpt>
      <trkpt lat="50.4704" lon="3.41845">
        <ele>16.948795</ele>
        <time>2020-05-31T15:31:27.302Z</time>
      </trkpt>
      <trkpt lat="50.46996" lon="3.41775">
        <ele>16.874509</ele>
        <time>2020-05-31T15:31:36.081Z</time>
      </trkpt>
      <trkpt lat="50.46972" lon="3.41703">
        <ele>16.792015</ele>
        <time>2020-05-31T15:31:43.385Z</time>
      </trkpt>
      <trkpt lat="50.46913" lon="3.41584">
        <ele>16.661925</ele>
        <time>2020-05-31T15:31:57.034Z</time>
      </trkpt>
      <trkpt lat="50.46906" lon="3.41552">
        <ele>16.659164</ele>
        <time>2020-05-31T15:32:00.194Z</time>
      </trkpt>
      <trkpt lat="50.46901" lon="3.4149">
        <ele>16.654135</ele>
        <time>2020-05-31T15:32:06.028Z</time>
      </trkpt>
      <trkpt lat="50.46934" lon="3.41482">
        <ele>16.649972</ele>
        <time>2020-05-31T15:32:10.915Z</time>
      </trkpt>
      <trkpt lat="50.47095" lon="3.41382">
        <ele>16.674754</ele>
        <time>2020-05-31T15:32:37.199Z</time>
      </trkpt>
      <trkpt lat="50.4712" lon="3.41364">
        <ele>16.683465</ele>
        <time>2020-05-31T15:32:41.167Z</time>
      </trkpt>
      <trkpt lat="50.47156" lon="3.41338">
        <ele>16.696525</ele>
        <time>2020-05-31T15:32:47.048Z</time>
      </trkpt>
      <trkpt lat="50.47232" lon="3.41272">
        <ele>16.802524</ele>
        <time>2020-05-31T15:32:59.826Z</time>
      </trkpt>
      <trkpt lat="50.47261" lon="3.41265">
        <ele>16.841272</ele>
        <time>2020-05-31T15:33:04.256Z</time>
      </trkpt>
      <trkpt lat="50.47317" lon="3.41267">
        <ele>16.916922</ele>
        <time>2020-05-31T15:33:13.277Z</time>
      </trkpt>
      <trkpt lat="50.47333" lon="3.41258">
        <ele>16.940443</ele>
        <time>2020-05-31T15:33:15.933Z</time>
      </trkpt>
      <trkpt lat="50.47347" lon="3.41236">
        <ele>17.02321</ele>
        <time>2020-05-31T15:33:19.193Z</time>
      </trkpt>
      <trkpt lat="50.47417" lon="3.41111">
        <ele>17.483989</ele>
        <time>2020-05-31T15:33:36.983Z</time>
      </trkpt>
      <trkpt lat="50.47438" lon="3.41064">
        <ele>17.640918</ele>
        <time>2020-05-31T15:33:43.245Z</time>
      </trkpt>
      <trkpt lat="50.47547" lon="3.40731">
        <ele>18.27309</ele>
        <time>2020-05-31T15:34:21.685Z</time>
      </trkpt>
      <trkpt lat="50.47559" lon="3.40681">
        <ele>18.28311</ele>
        <time>2020-05-31T15:34:26.776Z</time>
      </trkpt>
      <trkpt lat="50.47569" lon="3.40585">
        <ele>18.301357</ele>
        <time>2020-05-31T15:34:35.789Z</time>
      </trkpt>
      <trkpt lat="50.47576" lon="3.40557">
        <ele>18.306931</ele>
        <time>2020-05-31T15:34:38.511Z</time>
      </trkpt>
      <trkpt lat="50.47647" lon="3.40391">
        <ele>18.068225</ele>
        <time>2020-05-31T15:34:56.475Z</time>
      </trkpt>
      <trkpt lat="50.47663" lon="3.40337">
        <ele>17.977994</ele>
        <time>2020-05-31T15:35:01.718Z</time>
      </trkpt>
      <trkpt lat="50.47672" lon="3.40305">
        <ele>17.924536</ele>
        <time>2020-05-31T15:35:04.829Z</time>
      </trkpt>
      <trkpt lat="50.47697" lon="3.40255">
        <ele>17.814312</ele>
        <time>2020-05-31T15:35:10.426Z</time>
      </trkpt>
      <trkpt lat="50.47702" lon="3.40246">
        <ele>17.792091</ele>
        <time>2020-05-31T15:35:11.480Z</time>
      </trkpt>
      <trkpt lat="50.47704" lon="3.40241">
        <ele>17.779716</ele>
        <time>2020-05-31T15:35:12.018Z</time>
      </trkpt>
      <trkpt lat="50.47732" lon="3.40193">
        <ele>17.656551</ele>
        <time>2020-05-31T15:35:17.756Z</time>
      </trkpt>
      <trkpt lat="50.4783" lon="3.40085">
        <ele>17.314117</ele>
        <time>2020-05-31T15:35:34.189Z</time>
      </trkpt>
      <trkpt lat="50.47874" lon="3.40052">
        <ele>17.214513</ele>
        <time>2020-05-31T15:35:40.872Z</time>
      </trkpt>
      <trkpt lat="50.48006" lon="3.40015">
        <ele>17.043843</ele>
        <time>2020-05-31T15:35:59.953Z</time>
      </trkpt>
      <trkpt lat="50.48026" lon="3.40021">
        <ele>17.1097</ele>
        <time>2020-05-31T15:36:03.025Z</time>
      </trkpt>
      <trkpt lat="50.48066" lon="3.40055">
        <ele>17.259722</ele>
        <time>2020-05-31T15:36:10.784Z</time>
      </trkpt>
      <trkpt lat="50.481" lon="3.40053">
        <ele>17.368361</ele>
        <time>2020-05-31T15:36:16.392Z</time>
      </trkpt>
      <trkpt lat="50.48107" lon="3.4005">
        <ele>17.393334</ele>
        <time>2020-05-31T15:36:17.606Z</time>
      </trkpt>
      <trkpt lat="50.48117" lon="3.40045">
        <ele>17.429634</ele>
        <time>2020-05-31T15:36:19.454Z</time>
      </trkpt>
      <trkpt lat="50.48129" lon="3.40035">
        <ele>17.473026</ele>
        <time>2020-05-31T15:36:21.659Z</time>
      </trkpt>
      <trkpt lat="50.48135" lon="3.40031">
        <ele>17.492977</ele>
        <time>2020-05-31T15:36:22.683Z</time>
      </trkpt>
      <trkpt lat="50.48141" lon="3.40022">
        <ele>17.520981</ele>
        <time>2020-05-31T15:36:24.033Z</time>
      </trkpt>
      <trkpt lat="50.48161" lon="3.39995">
        <ele>17.608429</ele>
        <time>2020-05-31T15:36:28.420Z</time>
      </trkpt>
      <trkpt lat="50.48188" lon="3.39968">
        <ele>17.718568</ele>
        <time>2020-05-31T15:36:33.742Z</time>
      </trkpt>
      <trkpt lat="50.48218" lon="3.39938">
        <ele>17.840731</ele>
        <time>2020-05-31T15:36:39.585Z</time>
      </trkpt>
      <trkpt lat="50.48229" lon="3.39927">
        <ele>17.882531</ele>
        <time>2020-05-31T15:36:41.491Z</time>
      </trkpt>
      <trkpt lat="50.48299" lon="3.39871">
        <ele>18.151638</ele>
        <time>2020-05-31T15:36:54.339Z</time>
      </trkpt>
      <trkpt lat="50.48346" lon="3.39843">
        <ele>18.380036</ele>
        <time>2020-05-31T15:37:02.291Z</time>
      </trkpt>
      <trkpt lat="50.48358" lon="3.3984">
        <ele>18.439627</ele>
        <time>2020-05-31T15:37:04.048Z</time>
      </trkpt>
      <trkpt lat="50.48391" lon="3.39831">
        <ele>18.595978</ele>
        <time>2020-05-31T15:37:09.314Z</time>
      </trkpt>
      <trkpt lat="50.48545" lon="3.39763">
        <ele>19.534704</ele>
        <time>2020-05-31T15:37:37.707Z</time>
      </trkpt>
      <trkpt lat="50.48632" lon="3.39811">
        <ele>20.206785</ele>
        <time>2020-05-31T15:37:54.004Z</time>
      </trkpt>
      <trkpt lat="50.48649" lon="3.39826">
        <ele>20.354912</ele>
        <time>2020-05-31T15:37:57.633Z</time>
      </trkpt>
      <trkpt lat="50.48669" lon="3.39842">
        <ele>20.500393</ele>
        <time>2020-05-31T15:38:01.414Z</time>
      </trkpt>
      <trkpt lat="50.48698" lon="3.39865">
        <ele>20.719023</ele>
        <time>2020-05-31T15:38:07.301Z</time>
      </trkpt>
      <trkpt lat="50.48717" lon="3.39879">
        <ele>20.856452</ele>
        <time>2020-05-31T15:38:11.056Z</time>
      </trkpt>
      <trkpt lat="50.48786" lon="3.3993">
        <ele>21.357316</ele>
        <time>2020-05-31T15:38:24.688Z</time>
      </trkpt>
      <trkpt lat="50.48769" lon="3.40014">
        <ele>21.595959</ele>
        <time>2020-05-31T15:38:36.960Z</time>
      </trkpt>
      <trkpt lat="50.48752" lon="3.40064">
        <ele>21.657641</ele>
        <time>2020-05-31T15:38:44.397Z</time>
      </trkpt>
      <trkpt lat="50.48726" lon="3.40143">
        <ele>21.756151</ele>
        <time>2020-05-31T15:38:56.275Z</time>
      </trkpt>
      <trkpt lat="50.48703" lon="3.40206">
        <ele>21.837103</ele>
        <time>2020-05-31T15:39:05.838Z</time>
      </trkpt>
      <trkpt lat="50.48686" lon="3.40261">
        <ele>21.802937</ele>
        <time>2020-05-31T15:39:13.440Z</time>
      </trkpt>
      <trkpt lat="50.48667" lon="3.40307">
        <ele>21.718882</ele>
        <time>2020-05-31T15:39:18.461Z</time>
      </trkpt>
      <trkpt lat="50.4861" lon="3.40419">
        <ele>21.502304</ele>
        <time>2020-05-31T15:39:30.927Z</time>
      </trkpt>
      <trkpt lat="50.48594" lon="3.40435">
        <ele>21.456712</ele>
        <time>2020-05-31T15:39:33.618Z</time>
      </trkpt>
      <trkpt lat="50.48538" lon="3.40457">
        <ele>21.404495</ele>
        <time>2020-05-31T15:39:41.749Z</time>
      </trkpt>
      <trkpt lat="50.48527" lon="3.40481">
        <ele>21.392526</ele>
        <time>2020-05-31T15:39:44.438Z</time>
      </trkpt>
      <trkpt lat="50.48504" lon="3.40571">
        <ele>21.354269</ele>
        <time>2020-05-31T15:39:53.612Z</time>
      </trkpt>
      <trkpt lat="50.48489" lon="3.40632">
        <ele>21.328174</ele>
        <time>2020-05-31T15:39:59.986Z</time>
      </trkpt>
      <trkpt lat="50.48479" lon="3.40698">
        <ele>21.319186</ele>
        <time>2020-05-31T15:40:06.451Z</time>
      </trkpt>
      <trkpt lat="50.48467" lon="3.4075">
        <ele>21.316405</ele>
        <time>2020-05-31T15:40:11.749Z</time>
      </trkpt>
      <trkpt lat="50.48455" lon="3.40801">
        <ele>21.313699</ele>
        <time>2020-05-31T15:40:16.898Z</time>
      </trkpt>
      <trkpt lat="50.48423" lon="3.40932">
        <ele>21.288269</ele>
        <time>2020-05-31T15:40:30.097Z</time>
      </trkpt>
      <trkpt lat="50.48382" lon="3.41136">
        <ele>21.075939</ele>
        <time>2020-05-31T15:40:49.470Z</time>
      </trkpt>
      <trkpt lat="50.48367" lon="3.4127">
        <ele>20.952298</ele>
        <time>2020-05-31T15:41:01.748Z</time>
      </trkpt>
      <trkpt lat="50.48361" lon="3.41323">
        <ele>20.906054</ele>
        <time>2020-05-31T15:41:06.593Z</time>
      </trkpt>
      <trkpt lat="50.48335" lon="3.41557">
        <ele>20.73979</ele>
        <time>2020-05-31T15:41:28.490Z</time>
      </trkpt>
      <trkpt lat="50.48277" lon="3.41973">
        <ele>20.539623</ele>
        <time>2020-05-31T15:42:08.426Z</time>
      </trkpt>
      <trkpt lat="50.48265" lon="3.42058">
        <ele>20.423341</ele>
        <time>2020-05-31T15:42:16.180Z</time>
      </trkpt>
      <trkpt lat="50.48267" lon="3.42088">
        <ele>20.35831</ele>
        <time>2020-05-31T15:42:18.804Z</time>
      </trkpt>
      <trkpt lat="50.4827" lon="3.42108">
        <ele>20.312021</ele>
        <time>2020-05-31T15:42:20.661Z</time>
      </trkpt>
      <trkpt lat="50.48281" lon="3.42171">
        <ele>20.16883</ele>
        <time>2020-05-31T15:42:26.361Z</time>
      </trkpt>
      <trkpt lat="50.48282" lon="3.42212">
        <ele>20.077127</ele>
        <time>2020-05-31T15:42:30.008Z</time>
      </trkpt>
      <trkpt lat="50.48275" lon="3.42268">
        <ele>19.953434</ele>
        <time>2020-05-31T15:42:34.886Z</time>
      </trkpt>
      <trkpt lat="50.48243" lon="3.4251">
        <ele>19.123474</ele>
        <time>2020-05-31T15:42:55.436Z</time>
      </trkpt>
      <trkpt lat="50.48265" lon="3.42517">
        <ele>19.000954</ele>
        <time>2020-05-31T15:42:58.334Z</time>
      </trkpt>
      <trkpt lat="50.48298" lon="3.42533">
        <ele>18.863889</ele>
        <time>2020-05-31T15:43:02.969Z</time>
      </trkpt>
      <trkpt lat="50.48331" lon="3.42556">
        <ele>18.772054</ele>
        <time>2020-05-31T15:43:07.861Z</time>
      </trkpt>
      <trkpt lat="50.48364" lon="3.42603">
        <ele>18.660398</ele>
        <time>2020-05-31T15:43:14.048Z</time>
      </trkpt>
      <trkpt lat="50.48379" lon="3.42655">
        <ele>18.569</ele>
        <time>2020-05-31T15:43:19.152Z</time>
      </trkpt>
      <trkpt lat="50.48391" lon="3.42733">
        <ele>18.462247</ele>
        <time>2020-05-31T15:43:26.781Z</time>
      </trkpt>
      <trkpt lat="50.48397" lon="3.4277">
        <ele>18.480008</ele>
        <time>2020-05-31T15:43:30.680Z</time>
      </trkpt>
      <trkpt lat="50.48404" lon="3.42822">
        <ele>18.504276</ele>
        <time>2020-05-31T15:43:35.765Z</time>
      </trkpt>
      <trkpt lat="50.48423" lon="3.42957">
        <ele>18.568219</ele>
        <time>2020-05-31T15:43:49.015Z</time>
      </trkpt>
      <trkpt lat="50.48426" lon="3.42971">
        <ele>18.575034</ele>
        <time>2020-05-31T15:43:50.491Z</time>
      </trkpt>
      <trkpt lat="50.48432" lon="3.43001">
        <ele>18.591277</ele>
        <time>2020-05-31T15:43:53.428Z</time>
      </trkpt>
      <trkpt lat="50.48438" lon="3.43022">
        <ele>18.61409</ele>
        <time>2020-05-31T15:43:55.577Z</time>
      </trkpt>
      <trkpt lat="50.48468" lon="3.43113">
        <ele>18.712775</ele>
        <time>2020-05-31T15:44:05.277Z</time>
      </trkpt>
      <trkpt lat="50.48503" lon="3.4319">
        <ele>18.804587</ele>
        <time>2020-05-31T15:44:14.693Z</time>
      </trkpt>
      <trkpt lat="50.48515" lon="3.43211">
        <ele>18.831792</ele>
        <time>2020-05-31T15:44:17.317Z</time>
      </trkpt>
      <trkpt lat="50.48516" lon="3.43213">
        <ele>18.835323</ele>
        <time>2020-05-31T15:44:17.885Z</time>
      </trkpt>
      <trkpt lat="50.48543" lon="3.43246">
        <ele>18.948618</ele>
        <time>2020-05-31T15:44:23.484Z</time>
      </trkpt>
      <trkpt lat="50.48566" lon="3.43274">
        <ele>19.097587</ele>
        <time>2020-05-31T15:44:28.487Z</time>
      </trkpt>
      <trkpt lat="50.48614" lon="3.43307">
        <ele>19.366901</ele>
        <time>2020-05-31T15:44:37.474Z</time>
      </trkpt>
      <trkpt lat="50.48697" lon="3.4335">
        <ele>19.812309</ele>
        <time>2020-05-31T15:44:52.352Z</time>
      </trkpt>
      <trkpt lat="50.48714" lon="3.43358">
        <ele>19.895433</ele>
        <time>2020-05-31T15:44:55.356Z</time>
      </trkpt>
      <trkpt lat="50.48812" lon="3.43386">
        <ele>20.357905</ele>
        <time>2020-05-31T15:45:11.931Z</time>
      </trkpt>
      <trkpt lat="50.48835" lon="3.43392">
        <ele>20.46899</ele>
        <time>2020-05-31T15:45:15.739Z</time>
      </trkpt>
      <trkpt lat="50.48831" lon="3.43417">
        <ele>20.547883</ele>
        <time>2020-05-31T15:45:18.447Z</time>
      </trkpt>
      <trkpt lat="50.48777" lon="3.43508">
        <ele>20.945386</ele>
        <time>2020-05-31T15:45:31.628Z</time>
      </trkpt>
      <trkpt lat="50.48772" lon="3.4353">
        <ele>21.020177</ele>
        <time>2020-05-31T15:45:34.150Z</time>
      </trkpt>
      <trkpt lat="50.48774" lon="3.4355">
        <ele>21.087579</ele>
        <time>2020-05-31T15:45:36.562Z</time>
      </trkpt>
      <trkpt lat="50.48786" lon="3.43584">
        <ele>21.214962</ele>
        <time>2020-05-31T15:45:40.788Z</time>
      </trkpt>
      <trkpt lat="50.48793" lon="3.43602">
        <ele>21.28435</ele>
        <time>2020-05-31T15:45:43.221Z</time>
      </trkpt>
      <trkpt lat="50.488" lon="3.4362">
        <ele>21.353192</ele>
        <time>2020-05-31T15:45:45.410Z</time>
      </trkpt>
      <trkpt lat="50.48851" lon="3.4374">
        <ele>21.612791</ele>
        <time>2020-05-31T15:46:00.834Z</time>
      </trkpt>
      <trkpt lat="50.48863" lon="3.43769">
        <ele>21.638496</ele>
        <time>2020-05-31T15:46:04.281Z</time>
      </trkpt>
      <trkpt lat="50.48882" lon="3.43799">
        <ele>21.669912</ele>
        <time>2020-05-31T15:46:08.606Z</time>
      </trkpt>
      <trkpt lat="50.48907" lon="3.43837">
        <ele>21.710709</ele>
        <time>2020-05-31T15:46:13.948Z</time>
      </trkpt>
      <trkpt lat="50.48918" lon="3.43854">
        <ele>21.729583</ele>
        <time>2020-05-31T15:46:16.275Z</time>
      </trkpt>
      <trkpt lat="50.48944" lon="3.43891">
        <ele>21.693465</ele>
        <time>2020-05-31T15:46:20.892Z</time>
      </trkpt>
      <trkpt lat="50.48953" lon="3.43902">
        <ele>21.586415</ele>
        <time>2020-05-31T15:46:22.463Z</time>
      </trkpt>
      <trkpt lat="50.48981" lon="3.43937">
        <ele>21.264208</ele>
        <time>2020-05-31T15:46:26.960Z</time>
      </trkpt>
      <trkpt lat="50.48998" lon="3.43966">
        <ele>21.041992</ele>
        <time>2020-05-31T15:46:30.024Z</time>
      </trkpt>
      <trkpt lat="50.4902" lon="3.44022">
        <ele>20.66692</ele>
        <time>2020-05-31T15:46:35.134Z</time>
      </trkpt>
      <trkpt lat="50.49043" lon="3.44079">
        <ele>20.284163</ele>
        <time>2020-05-31T15:46:40.310Z</time>
      </trkpt>
      <trkpt lat="50.49109" lon="3.44183">
        <ele>19.555174</ele>
        <time>2020-05-31T15:46:51.615Z</time>
      </trkpt>
      <trkpt lat="50.49138" lon="3.44236">
        <ele>19.214348</ele>
        <time>2020-05-31T15:46:57.277Z</time>
      </trkpt>
      <trkpt lat="50.49167" lon="3.44324">
        <ele>18.771996</ele>
        <time>2020-05-31T15:47:05.730Z</time>
      </trkpt>
      <trkpt lat="50.49219" lon="3.44434">
        <ele>18.608616</ele>
        <time>2020-05-31T15:47:18.163Z</time>
      </trkpt>
      <trkpt lat="50.49227" lon="3.44464">
        <ele>18.568857</ele>
        <time>2020-05-31T15:47:21.245Z</time>
      </trkpt>
      <trkpt lat="50.49237" lon="3.44565">
        <ele>18.447344</ele>
        <time>2020-05-31T15:47:30.668Z</time>
      </trkpt>
      <trkpt lat="50.49254" lon="3.44618">
        <ele>18.352027</ele>
        <time>2020-05-31T15:47:36.101Z</time>
      </trkpt>
      <trkpt lat="50.49286" lon="3.44688">
        <ele>18.214176</ele>
        <time>2020-05-31T15:47:43.683Z</time>
      </trkpt>
      <trkpt lat="50.49301" lon="3.44709">
        <ele>18.163116</ele>
        <time>2020-05-31T15:47:46.465Z</time>
      </trkpt>
      <trkpt lat="50.49336" lon="3.44729">
        <ele>18.068096</ele>
        <time>2020-05-31T15:47:51.496Z</time>
      </trkpt>
      <trkpt lat="50.4934" lon="3.44731">
        <ele>18.058032</ele>
        <time>2020-05-31T15:47:51.992Z</time>
      </trkpt>
      <trkpt lat="50.49353" lon="3.4475">
        <ele>18.013506</ele>
        <time>2020-05-31T15:47:54.354Z</time>
      </trkpt>
      <trkpt lat="50.49359" lon="3.44758">
        <ele>17.992368</ele>
        <time>2020-05-31T15:47:55.539Z</time>
      </trkpt>
      <trkpt lat="50.49366" lon="3.44748">
        <ele>17.998175</ele>
        <time>2020-05-31T15:47:56.744Z</time>
      </trkpt>
      <trkpt lat="50.49368" lon="3.44744">
        <ele>18.000497</ele>
        <time>2020-05-31T15:47:57.206Z</time>
      </trkpt>
      <trkpt lat="50.4942" lon="3.44663">
        <ele>18.052339</ele>
        <time>2020-05-31T15:48:08.245Z</time>
      </trkpt>
      <trkpt lat="50.49426" lon="3.44654">
        <ele>18.058188</ele>
        <time>2020-05-31T15:48:09.354Z</time>
      </trkpt>
      <trkpt lat="50.49477" lon="3.44573">
        <ele>18.109241</ele>
        <time>2020-05-31T15:48:21.091Z</time>
      </trkpt>
      <trkpt lat="50.49491" lon="3.44561">
        <ele>18.115004</ele>
        <time>2020-05-31T15:48:23.995Z</time>
      </trkpt>
      <trkpt lat="50.49544" lon="3.44521">
        <ele>18.030296</ele>
        <time>2020-05-31T15:48:33.080Z</time>
      </trkpt>
      <trkpt lat="50.49562" lon="3.44503">
        <ele>17.999288</ele>
        <time>2020-05-31T15:48:36.392Z</time>
      </trkpt>
      <trkpt lat="50.4959" lon="3.44475">
        <ele>17.951971</ele>
        <time>2020-05-31T15:48:41.060Z</time>
      </trkpt>
      <trkpt lat="50.49648" lon="3.44404">
        <ele>17.765569</ele>
        <time>2020-05-31T15:48:50.791Z</time>
      </trkpt>
      <trkpt lat="50.49663" lon="3.44393">
        <ele>17.605155</ele>
        <time>2020-05-31T15:48:52.823Z</time>
      </trkpt>
      <trkpt lat="50.49669" lon="3.44396">
        <ele>17.546353</ele>
        <time>2020-05-31T15:48:53.588Z</time>
      </trkpt>
      <trkpt lat="50.49672" lon="3.44401">
        <ele>17.502059</ele>
        <time>2020-05-31T15:48:54.157Z</time>
      </trkpt>
      <trkpt lat="50.49674" lon="3.44405">
        <ele>17.470631</ele>
        <time>2020-05-31T15:48:54.487Z</time>
      </trkpt>
      <trkpt lat="50.49687" lon="3.44433">
        <ele>17.254272</ele>
        <time>2020-05-31T15:48:57.246Z</time>
      </trkpt>
      <trkpt lat="50.49735" lon="3.44569">
        <ele>16.281981</ele>
        <time>2020-05-31T15:49:09.036Z</time>
      </trkpt>
      <trkpt lat="50.49754" lon="3.44626">
        <ele>16.033273</ele>
        <time>2020-05-31T15:49:14.096Z</time>
      </trkpt>
      <trkpt lat="50.49776" lon="3.4469">
        <ele>15.905434</ele>
        <time>2020-05-31T15:49:20.259Z</time>
      </trkpt>
      <trkpt lat="50.49798" lon="3.44759">
        <ele>15.769096</ele>
        <time>2020-05-31T15:49:27.033Z</time>
      </trkpt>
      <trkpt lat="50.49799" lon="3.44762">
        <ele>15.763446</ele>
        <time>2020-05-31T15:49:27.422Z</time>
      </trkpt>
      <trkpt lat="50.49844" lon="3.44889">
        <ele>15.841991</ele>
        <time>2020-05-31T15:49:41.872Z</time>
      </trkpt>
      <trkpt lat="50.49851" lon="3.44909">
        <ele>15.958992</ele>
        <time>2020-05-31T15:49:44.616Z</time>
      </trkpt>
      <trkpt lat="50.49853" lon="3.44914">
        <ele>15.987428</ele>
        <time>2020-05-31T15:49:45.242Z</time>
      </trkpt>
      <trkpt lat="50.49864" lon="3.44939">
        <ele>16.137539</ele>
        <time>2020-05-31T15:49:48.778Z</time>
      </trkpt>
      <trkpt lat="50.49867" lon="3.44946">
        <ele>16.178834</ele>
        <time>2020-05-31T15:49:49.804Z</time>
      </trkpt>
      <trkpt lat="50.49874" lon="3.44964">
        <ele>16.283937</ele>
        <time>2020-05-31T15:49:52.483Z</time>
      </trkpt>
      <trkpt lat="50.49935" lon="3.45106">
        <ele>17.041</ele>
        <time>2020-05-31T15:50:13.216Z</time>
      </trkpt>
      <trkpt lat="50.49943" lon="3.45125">
        <ele>17.082068</ele>
        <time>2020-05-31T15:50:15.759Z</time>
      </trkpt>
      <trkpt lat="50.49958" lon="3.45159">
        <ele>17.153738</ele>
        <time>2020-05-31T15:50:19.880Z</time>
      </trkpt>
      <trkpt lat="50.49974" lon="3.45177">
        <ele>17.208808</ele>
        <time>2020-05-31T15:50:23.030Z</time>
      </trkpt>
      <trkpt lat="50.49999" lon="3.45188">
        <ele>17.277717</ele>
        <time>2020-05-31T15:50:26.666Z</time>
      </trkpt>
      <trkpt lat="50.50005" lon="3.45189">
        <ele>17.295216</ele>
        <time>2020-05-31T15:50:27.701Z</time>
      </trkpt>
      <trkpt lat="50.50044" lon="3.45199">
        <ele>17.404112</ele>
        <time>2020-05-31T15:50:33.859Z</time>
      </trkpt>
      <trkpt lat="50.50051" lon="3.45202">
        <ele>17.423423</ele>
        <time>2020-05-31T15:50:34.915Z</time>
      </trkpt>
      <trkpt lat="50.50052" lon="3.45203">
        <ele>17.42799</ele>
        <time>2020-05-31T15:50:35.170Z</time>
      </trkpt>
      <trkpt lat="50.50084" lon="3.45223">
        <ele>17.487824</ele>
        <time>2020-05-31T15:50:40.433Z</time>
      </trkpt>
      <trkpt lat="50.50092" lon="3.45227">
        <ele>17.487824</ele>
        <time>2020-05-31T15:50:41.629Z</time>
      </trkpt>
      <trkpt lat="50.50129" lon="3.45252">
        <ele>17.487824</ele>
        <time>2020-05-31T15:50:47.092Z</time>
      </trkpt>
      <trkpt lat="50.50141" lon="3.4526">
        <ele>17.487824</ele>
        <time>2020-05-31T15:50:48.949Z</time>
      </trkpt>
      <trkpt lat="50.50195" lon="3.45295">
        <ele>17.487824</ele>
        <time>2020-05-31T15:50:56.660Z</time>
      </trkpt>
      <trkpt lat="50.50212" lon="3.45309">
        <ele>17.487824</ele>
        <time>2020-05-31T15:50:59.422Z</time>
      </trkpt>
    </trkseg>
  </trk>
</gpx>